BA1474 / G-EUXC 7700 Squawk Report (14th of December, 2019)

Aircraft A321 Reg No. G-EUXC Age 15 years old
Model A321 Jet engines 2 First flight 24-09-04
Registered 15-10-04 Rollout 09-04 Delivered 15-10-04
Construction No. 2305 Line No. N/A Series 231
ADSHEX 400AFB Airline name British Airways Owner N/A
Airfield based Heathrow~Gtr London~G First tracked 2017-07-13 10:52:00

Flight history for G-EUXC

Route Flight No Date Playback
Glasgow (GLA) - Heathrow (LHR) BA1481 2020-01-18 04:17:00
Heathrow (LHR) - Glasgow (GLA) BA1480 2020-01-17 18:37:00
Glasgow (GLA) - Heathrow (LHR) BA1487 2020-01-17 15:17:00
Heathrow (LHR) - Glasgow (GLA) BA1482 2020-01-17 13:51:00
McCarran Intl (LAS) - Heathrow (LHR) BA274 2020-01-14 19:15:00
???? BA9256 2020-01-14 14:27:00
Glasgow (GLA) - Heathrow (LHR) BA1477 2020-01-14 13:01:00
Heathrow (LHR) - Glasgow (GLA) BA1472 2020-01-14 09:18:00
Frankfurt Main (FRA) - Heathrow (LHR) BA911 2020-01-09 21:54:00
Heathrow (LHR) - Frankfurt Main (FRA) BA910 2020-01-09 18:23:00
Barajas (MAD) - Heathrow (LHR) BA459 2020-01-09 13:38:00
Heathrow (LHR) - Barajas (MAD) BA458 2020-01-09 11:49:00
Edinburgh (EDI) - Heathrow (LHR) BA1465 2020-01-09 07:45:00
Heathrow (LHR) - Edinburgh (EDI) BA1458 2020-01-08 19:28:00
Zurich (ZRH) - Heathrow (LHR) BA717 2020-01-08 17:19:00
Heathrow (LHR) - Zurich (ZRH) BA716 2020-01-08 15:34:00
Arlanda (ARN) - Heathrow (LHR) BA771 2020-01-08 09:40:00
Heathrow (LHR) - Arlanda (ARN) BA786 2020-01-08 06:57:00
Blagnac (TLS) - Heathrow (LHR) BA379 2020-01-07 19:05:00
Heathrow (LHR) - Blagnac (TLS) BA378 2020-01-07 15:03:00
Time Lat Lon Altitude Heading Speed Vertical Rate
2019-12-14 09:11:51 GMT 55.866959 -4.434893 0 129 2 0
2019-12-14 09:11:19 GMT 55.867493 -4.436073 0 92 7 0
2019-12-14 09:11:03 GMT 55.867386 -4.437082 0 92 9 0
2019-12-14 09:10:55 GMT 55.867435 -4.437661 0 146 9 0
2019-12-14 09:10:28 GMT 55.868622 -4.437404 0 199 12 0
2019-12-14 09:10:20 GMT 55.869015 -4.437145 0 196 10 0
2019-12-14 09:10:10 GMT 55.869415 -4.436937 0 154 9 0
2019-12-14 09:10:00 GMT 55.869678 -4.437291 0 180 6 0
2019-12-14 09:09:38 GMT 55.871681 -4.433961 1,050 227 88 0
2019-12-14 09:09:29 GMT 55.874649 -4.428434 1,050 227 128 -192
2019-12-14 09:09:19 GMT 55.878891 -4.420499 1,100 227 128 -640
2019-12-14 09:09:10 GMT 55.882656 -4.413500 1,225 227 127 -704
2019-12-14 09:09:00 GMT 55.886765 -4.405850 1,350 227 129 -768
2019-12-14 09:08:50 GMT 55.890793 -4.398193 1,450 227 128 -704
2019-12-14 09:08:39 GMT 55.895084 -4.390240 1,575 227 129 -832
2019-12-14 09:08:29 GMT 55.903324 -4.374704 1,775 227 129 -832
2019-12-14 09:08:19 GMT 55.903324 -4.374704 1,800 226 129 -768
2019-12-14 09:08:08 GMT 55.908352 -4.365263 1,925 227 130 -640
2019-12-14 09:08:00 GMT 55.911472 -4.359512 2,075 227 130 -768
2019-12-14 09:07:54 GMT 55.914047 -4.354664 2,125 226 130 -768
2019-12-14 09:07:49 GMT 55.915787 -4.351335 2,225 227 128 -640
2019-12-14 09:07:42 GMT 55.918488 -4.346175 2,250 227 128 -640
2019-12-14 09:07:39 GMT 55.919815 -4.343761 2,300 226 130 -768
2019-12-14 09:07:36 GMT 55.921463 -4.340765 2,350 227 130 -896
2019-12-14 09:07:32 GMT 55.922607 -4.338518 2,375 227 130 -832
2019-12-14 09:07:29 GMT 55.924042 -4.335823 2,425 227 130 -832
2019-12-14 09:07:26 GMT 55.925400 -4.333274 2,475 227 130 -832
2019-12-14 09:07:23 GMT 55.926647 -4.331017 2,525 226 128 -704
2019-12-14 09:07:19 GMT 55.928238 -4.328114 2,550 227 136 -704
2019-12-14 09:07:16 GMT 55.929428 -4.325867 2,600 227 131 -448
2019-12-14 09:07:13 GMT 55.930790 -4.323292 2,625 227 134 -768
2019-12-14 09:07:09 GMT 55.932281 -4.320459 2,675 227 137 -768
2019-12-14 09:07:06 GMT 55.933491 -4.318228 2,700 227 137 -768
2019-12-14 09:07:03 GMT 55.935120 -4.315138 2,750 227 139 -640
2019-12-14 09:07:00 GMT 55.936752 -4.312134 2,800 227 140 -832
2019-12-14 09:06:57 GMT 55.938053 -4.309645 2,825 227 140 -832
2019-12-14 09:06:52 GMT 55.939636 -4.306724 2,875 228 140 -768
2019-12-14 09:06:49 GMT 55.941422 -4.303311 2,950 227 142 -832
2019-12-14 09:06:46 GMT 55.942616 -4.301062 2,975 227 142 -832
2019-12-14 09:06:42 GMT 55.944214 -4.298068 3,025 227 142 -832
2019-12-14 09:06:39 GMT 55.945953 -4.294822 3,100 227 142 -768
2019-12-14 09:06:36 GMT 55.947098 -4.292658 3,100 227 142 -768
2019-12-14 09:06:32 GMT 55.948807 -4.289303 3,150 228 140 -832
2019-12-14 09:06:29 GMT 55.950390 -4.286299 3,200 228 140 -768
2019-12-14 09:06:26 GMT 55.951767 -4.283586 3,250 228 140 -832
2019-12-14 09:06:22 GMT 55.953186 -4.280839 3,275 229 140 -832
2019-12-14 09:06:19 GMT 55.954697 -4.277760 3,325 229 141 -768
2019-12-14 09:06:12 GMT 55.957489 -4.272017 3,425 230 141 -832
2019-12-14 09:06:07 GMT 55.959885 -4.266987 3,475 231 141 -832
2019-12-14 09:06:04 GMT 55.961105 -4.264360 3,550 231 142 -832
2019-12-14 09:06:01 GMT 55.961933 -4.262524 3,575 232 143 -832
2019-12-14 09:05:56 GMT 55.964264 -4.257369 3,650 233 144 -768
2019-12-14 09:05:51 GMT 55.966125 -4.252996 3,700 234 143 -704
2019-12-14 09:05:47 GMT 55.967789 -4.248879 3,750 237 140 -448
2019-12-14 09:05:43 GMT 55.969345 -4.244468 3,775 241 138 -320
2019-12-14 09:05:38 GMT 55.970592 -4.239264 3,800 255 138 -320
2019-12-14 09:05:35 GMT 55.971222 -4.231900 3,850 266 142 -576
2019-12-14 09:05:31 GMT 55.971222 -4.231900 3,850 266 142 -576
2019-12-14 09:05:28 GMT 55.971336 -4.228449 3,900 267 146 -512
2019-12-14 09:05:25 GMT 55.971523 -4.224501 3,900 267 146 -512
2019-12-14 09:05:22 GMT 55.971619 -4.221668 3,925 267 149 -640
2019-12-14 09:05:16 GMT 55.971909 -4.214172 4,000 266 154 -512
2019-12-14 09:05:13 GMT 55.972137 -4.208596 4,050 266 158 -576
2019-12-14 09:05:09 GMT 55.972363 -4.203386 4,075 266 159 -512
2019-12-14 09:05:06 GMT 55.972549 -4.198858 4,100 266 160 -448
2019-12-14 09:05:03 GMT 55.972687 -4.196195 4,125 267 161 -256
2019-12-14 09:04:57 GMT 55.973053 -4.183044 4,150 269 162 -128
2019-12-14 09:04:53 GMT 55.973053 -4.183044 4,150 271 165 128
2019-12-14 09:04:50 GMT 55.973061 -4.179869 4,150 271 165 128
2019-12-14 09:04:46 GMT 55.972824 -4.174222 4,175 284 173 -448
2019-12-14 09:04:42 GMT 55.972137 -4.168646 4,175 297 182 -320
2019-12-14 09:04:39 GMT 55.971130 -4.164068 4,175 297 182 -320
2019-12-14 09:04:36 GMT 55.969616 -4.159613 4,200 307 188 -320
2019-12-14 09:04:31 GMT 55.966873 -4.153914 4,225 319 198 -448
2019-12-14 09:04:28 GMT 55.964630 -4.150585 4,250 324 204 -448
2019-12-14 09:04:25 GMT 55.962261 -4.147596 4,300 329 208 -384
2019-12-14 09:04:20 GMT 55.958443 -4.143476 4,300 330 211 -384
2019-12-14 09:04:16 GMT 55.954880 -4.139765 4,325 330 214 -384
2019-12-14 09:04:12 GMT 55.951309 -4.136020 4,350 330 217 -384
2019-12-14 09:04:07 GMT 55.947735 -4.132318 4,400 330 222 -384
2019-12-14 09:04:04 GMT 55.941639 -4.126053 4,425 330 225 -448
2019-12-14 09:03:56 GMT 55.937077 -4.121332 4,475 330 229 -256
2019-12-14 09:03:51 GMT 55.933258 -4.117298 4,475 330 230 -256
2019-12-14 09:03:45 GMT 55.927486 -4.111204 4,550 329 246 -128
2019-12-14 09:03:41 GMT 55.923752 -4.107222 4,550 329 242 -192
2019-12-14 09:03:37 GMT 55.919201 -4.102364 4,550 329 247 -64
2019-12-14 09:03:34 GMT 55.916222 -4.099102 4,550 329 250 -64
2019-12-14 09:03:31 GMT 55.913910 -4.096569 4,550 329 253 0
2019-12-14 09:03:25 GMT 55.907982 -4.090090 4,550 329 261 0
2019-12-14 09:03:21 GMT 55.903702 -4.085333 4,550 328 267 128
2019-12-14 09:03:18 GMT 55.898438 -4.079275 4,550 328 276 -128
2019-12-14 09:03:15 GMT 55.897274 -4.077988 4,550 327 279 -128
2019-12-14 09:03:11 GMT 55.892670 -4.072682 4,550 327 281 -128
2019-12-14 09:03:07 GMT 55.887451 -4.066572 4,550 327 287 -192
2019-12-14 09:03:03 GMT 55.884007 -4.062538 4,575 328 290 -320
2019-12-14 09:03:00 GMT 55.881214 -4.059362 4,575 328 294 -320
2019-12-14 09:02:55 GMT 55.874836 -4.051981 4,850 327 301 -960
2019-12-14 09:02:50 GMT 55.869598 -4.045882 4,700 327 302 -1024
2019-12-14 09:02:44 GMT 55.862503 -4.037559 4,825 327 304 -1152
2019-12-14 09:02:40 GMT 55.857658 -4.031982 4,875 327 305 -1024
2019-12-14 09:02:37 GMT 55.849743 -4.022713 4,975 327 308 -1152
2019-12-14 09:02:34 GMT 55.849743 -4.022713 5,025 327 309 -1152
2019-12-14 09:02:31 GMT 55.846115 -4.018416 5,050 327 310 -1088
2019-12-14 09:02:25 GMT 55.838432 -4.009409 5,175 327 309 -896
2019-12-14 09:02:21 GMT 55.834351 -4.004683 5,200 327 310 -896
2019-12-14 09:02:14 GMT 55.825928 -3.995112 5,325 328 310 -1024
2019-12-14 09:02:10 GMT 55.821899 -3.990534 5,350 328 310 -1088
2019-12-14 09:02:04 GMT 55.814083 -3.981771 5,525 328 311 -1152
2019-12-14 09:02:01 GMT 55.808762 -3.975802 5,600 328 312 -1216
2019-12-14 09:01:56 GMT 55.803799 -3.970270 5,650 329 313 -1280
2019-12-14 09:01:53 GMT 55.799332 -3.965399 5,750 329 314 -1408
2019-12-14 09:01:46 GMT 55.791832 -3.957138 5,900 329 314 -1344
2019-12-14 09:01:43 GMT 55.784363 -3.949169 5,975 330 314 -1344
2019-12-14 09:01:40 GMT 55.784363 -3.949169 6,025 331 314 -1344
2019-12-14 09:01:35 GMT 55.778240 -3.943062 6,175 332 312 -1344
2019-12-14 09:01:32 GMT 55.774658 -3.939681 6,200 333 312 -1344
2019-12-14 09:01:29 GMT 55.770420 -3.935766 6,250 333 312 -1280
2019-12-14 09:01:26 GMT 55.765808 -3.931646 6,350 335 312 -1216
2019-12-14 09:01:23 GMT 55.758736 -3.925552 6,425 335 312 -1216
2019-12-14 09:01:20 GMT 55.758736 -3.925552 6,475 335 312 -1280
2019-12-14 09:01:16 GMT 55.753510 -3.921037 6,550 334 312 -1216
2019-12-14 09:01:13 GMT 55.750263 -3.918171 6,625 334 312 -1152
2019-12-14 09:01:10 GMT 55.745728 -3.914129 6,675 334 313 -1152
2019-12-14 09:01:07 GMT 55.742844 -3.911632 6,725 334 313 -1152
2019-12-14 09:01:04 GMT 55.737442 -3.906805 6,800 334 313 -1088
2019-12-14 09:01:00 GMT 55.732944 -3.902807 6,850 334 312 -960
2019-12-14 09:00:57 GMT 55.729752 -3.899980 6,900 334 312 -896
2019-12-14 09:00:54 GMT 55.725124 -3.895855 6,950 333 312 -896
2019-12-14 09:00:51 GMT 55.721878 -3.892905 7,000 333 313 -960
2019-12-14 09:00:48 GMT 55.716476 -3.887912 7,000 333 313 -960
2019-12-14 09:00:43 GMT 55.711395 -3.883251 7,100 333 315 -1024
2019-12-14 09:00:40 GMT 55.706451 -3.878590 7,175 332 318 -1024
2019-12-14 09:00:37 GMT 55.698959 -3.871479 7,250 332 320 -960
2019-12-14 09:00:34 GMT 55.698959 -3.871479 7,275 333 321 -960
2019-12-14 09:00:31 GMT 55.696167 -3.868904 7,300 333 323 -896
2019-12-14 09:00:28 GMT 55.692211 -3.865213 7,400 332 331 -1024
2019-12-14 09:00:25 GMT 55.687637 -3.860945 7,400 333 327 -896
2019-12-14 09:00:22 GMT 55.682373 -3.856035 7,450 333 330 -1024
2019-12-14 09:00:19 GMT 55.678337 -3.852253 7,500 332 331 -1024
2019-12-14 09:00:15 GMT 55.673492 -3.847712 7,550 332 331 -1024
2019-12-14 09:00:11 GMT 55.668751 -3.843241 7,600 332 331 -960
2019-12-14 09:00:08 GMT 55.664658 -3.839306 7,700 332 331 -896
2019-12-14 09:00:05 GMT 55.659851 -3.834811 7,725 332 331 -896
2019-12-14 09:00:01 GMT 55.648590 -3.824074 7,825 332 331 -896
2019-12-14 08:59:56 GMT 55.648590 -3.824074 7,850 332 332 -896
2019-12-14 08:59:53 GMT 55.643967 -3.819747 7,900 332 334 -896
2019-12-14 08:59:47 GMT 55.635090 -3.811312 8,000 332 335 -960
2019-12-14 08:59:44 GMT 55.632202 -3.808594 8,050 332 336 -1024
2019-12-14 08:59:41 GMT 55.628017 -3.804531 8,075 332 336 -1024
2019-12-14 08:59:36 GMT 55.621033 -3.797922 8,150 332 336 -832
2019-12-14 08:59:33 GMT 55.617050 -3.794195 8,200 333 337 -960
2019-12-14 08:59:27 GMT 55.609440 -3.787107 8,300 333 339 -1024
2019-12-14 08:59:24 GMT 55.603775 -3.781877 8,350 333 340 -1152
2019-12-14 08:59:21 GMT 55.595856 -3.774636 8,475 333 341 -1280
2019-12-14 08:59:17 GMT 55.595856 -3.774636 8,475 333 341 -1280
2019-12-14 08:59:14 GMT 55.591095 -3.770225 8,550 333 342 -1280
2019-12-14 08:59:11 GMT 55.585785 -3.765314 8,625 333 342 -1280
2019-12-14 08:59:08 GMT 55.581974 -3.761873 8,700 333 343 -1408
2019-12-14 08:59:04 GMT 55.571873 -3.752775 9,175 333 350 -1536
2019-12-14 08:59:01 GMT 55.571873 -3.752775 8,875 333 343 -1344
2019-12-14 08:58:57 GMT 55.567245 -3.748502 8,950 333 344 -1344
2019-12-14 08:58:54 GMT 55.559738 -3.741677 9,100 333 345 -1344
2019-12-14 08:58:51 GMT 55.557495 -3.739680 9,100 333 346 -1280
2019-12-14 08:58:47 GMT 55.553253 -3.735781 9,150 333 346 -1280
2019-12-14 08:58:43 GMT 55.546509 -3.729775 9,250 333 347 -1408
2019-12-14 08:58:40 GMT 55.542591 -3.726168 9,325 333 347 -1600
2019-12-14 08:58:34 GMT 55.533932 -3.718357 9,500 333 349 -1536
2019-12-14 08:58:31 GMT 55.530167 -3.714960 9,600 333 349 -1536
2019-12-14 08:58:28 GMT 55.525322 -3.710632 9,700 333 352 -1536
2019-12-14 08:58:24 GMT 55.518620 -3.704538 9,750 333 350 -1536
2019-12-14 08:58:20 GMT 55.513504 -3.699979 9,825 333 351 -1472
2019-12-14 08:58:17 GMT 55.509914 -3.696728 9,975 333 352 -1536
2019-12-14 08:58:13 GMT 55.503937 -3.691323 10,000 333 352 -1536
2019-12-14 08:58:10 GMT 55.499111 -3.686943 10,050 333 353 -1536
2019-12-14 08:58:07 GMT 55.495377 -3.683583 10,175 333 355 -1536
2019-12-14 08:58:04 GMT 55.489662 -3.678446 10,275 333 355 -1600
2019-12-14 08:58:00 GMT 55.484356 -3.673639 10,325 333 355 -1600
2019-12-14 08:57:57 GMT 55.480537 -3.670206 10,425 333 357 -1600
2019-12-14 08:57:53 GMT 55.474392 -3.664627 10,525 333 358 -1600
2019-12-14 08:57:50 GMT 55.469505 -3.660250 10,625 334 359 -1600
2019-12-14 08:57:43 GMT 55.460194 -3.651924 10,800 334 360 -1600
2019-12-14 08:57:40 GMT 55.454655 -3.646946 10,900 334 360 -1664
2019-12-14 08:57:37 GMT 55.450279 -3.642998 10,975 333 360 -1664
2019-12-14 08:57:34 GMT 55.446350 -3.639471 11,075 334 361 -1664
2019-12-14 08:57:31 GMT 55.441944 -3.635559 11,150 334 361 -1664
2019-12-14 08:57:27 GMT 55.435547 -3.629770 11,250 334 361 -1600
2019-12-14 08:57:23 GMT 55.430401 -3.625155 11,350 333 361 -1600
2019-12-14 08:57:20 GMT 55.424583 -3.619995 11,450 333 361 -1536
2019-12-14 08:57:16 GMT 55.419273 -3.615168 11,550 333 361 -1536
2019-12-14 08:57:11 GMT 55.411362 -3.608093 11,700 334 361 -1536
2019-12-14 08:57:06 GMT 55.404938 -3.602350 11,800 334 361 -1536
2019-12-14 08:57:02 GMT 55.397873 -3.596003 11,950 334 362 -1664
2019-12-14 08:56:59 GMT 55.394138 -3.592696 12,075 334 363 -1728
2019-12-14 08:56:56 GMT 55.389809 -3.588867 12,075 334 363 -1728
2019-12-14 08:56:53 GMT 55.384735 -3.584290 12,175 334 364 -1664
2019-12-14 08:56:49 GMT 55.379192 -3.579379 12,275 334 365 -1664
2019-12-14 08:56:46 GMT 55.374573 -3.575242 12,375 333 366 -1600
2019-12-14 08:56:43 GMT 55.369995 -3.571122 12,450 333 366 -1600
2019-12-14 08:56:40 GMT 55.365372 -3.567002 12,500 333 366 -1600
2019-12-14 08:56:36 GMT 55.360062 -3.562236 12,650 334 365 -1472
2019-12-14 08:56:33 GMT 55.350677 -3.553835 12,750 333 367 -1536
2019-12-14 08:56:26 GMT 55.344681 -3.548422 12,900 333 367 -1536
2019-12-14 08:56:23 GMT 55.338730 -3.543091 12,975 333 367 -1600
2019-12-14 08:56:19 GMT 55.334930 -3.539698 13,050 333 368 -1536
2019-12-14 08:56:16 GMT 55.329391 -3.534770 13,200 333 369 -1536
2019-12-14 08:56:12 GMT 55.322983 -3.528954 13,250 334 370 -1536
2019-12-14 08:56:09 GMT 55.319839 -3.526195 13,300 334 370 -1536
2019-12-14 08:56:06 GMT 55.313599 -3.520553 13,450 334 371 -1600
2019-12-14 08:56:03 GMT 55.308884 -3.516433 13,500 334 372 -1600
2019-12-14 08:56:00 GMT 55.304947 -3.512878 13,550 334 373 -1536
2019-12-14 08:55:55 GMT 55.298035 -3.506739 13,800 334 375 -1600
2019-12-14 08:55:52 GMT 55.292561 -3.501892 13,800 334 377 -1664
2019-12-14 08:55:49 GMT 55.286739 -3.496649 13,875 334 377 -1664
2019-12-14 08:55:45 GMT 55.282104 -3.492521 14,000 333 378 -1728
2019-12-14 08:55:42 GMT 55.277344 -3.488240 14,050 334 379 -1792
2019-12-14 08:55:39 GMT 55.272869 -3.484331 14,125 334 379 -1856
2019-12-14 08:55:36 GMT 55.267319 -3.479354 14,175 334 380 -1856
2019-12-14 08:55:33 GMT 55.262878 -3.475396 14,250 334 380 -1856
2019-12-14 08:55:30 GMT 55.256790 -3.469983 14,450 334 380 -1856
2019-12-14 08:55:27 GMT 55.253677 -3.467317 14,525 334 380 -1920
2019-12-14 08:55:24 GMT 55.249191 -3.463278 14,600 334 380 -1920
2019-12-14 08:55:20 GMT 55.242844 -3.457614 14,775 334 380 -2048
2019-12-14 08:55:17 GMT 55.237656 -3.453019 14,950 334 380 -2112
2019-12-14 08:55:13 GMT 55.231293 -3.447364 15,000 334 380 -2112
2019-12-14 08:55:10 GMT 55.226830 -3.443465 15,125 334 380 -2176
2019-12-14 08:55:04 GMT 55.217422 -3.435086 15,300 334 379 -2240
2019-12-14 08:55:01 GMT 55.213051 -3.431147 15,425 334 379 -2240
2019-12-14 08:54:57 GMT 55.206619 -3.425472 15,575 334 379 -2240
2019-12-14 08:54:54 GMT 55.202454 -3.421757 15,800 334 377 -2240
2019-12-14 08:54:49 GMT 55.195221 -3.415294 15,850 334 375 -2176
2019-12-14 08:54:46 GMT 55.189957 -3.410609 15,975 334 374 -2240
2019-12-14 08:54:39 GMT 55.178555 -3.400518 16,325 334 374 -2496
2019-12-14 08:54:36 GMT 55.174667 -3.397037 16,650 334 376 -2624
2019-12-14 08:54:32 GMT 55.167938 -3.391140 16,625 334 375 -2624
2019-12-14 08:54:29 GMT 55.159103 -3.383304 16,750 334 376 -2624
2019-12-14 08:54:26 GMT 55.159103 -3.383304 16,875 334 380 -2304
2019-12-14 08:54:23 GMT 55.154114 -3.378879 17,450 334 381 -2304
2019-12-14 08:54:20 GMT 55.150177 -3.375469 17,100 334 381 -2304
2019-12-14 08:54:17 GMT 55.145222 -3.371138 17,150 334 379 -2368
2019-12-14 08:54:14 GMT 55.139648 -3.366179 17,450 334 381 -2304
2019-12-14 08:54:11 GMT 55.133560 -3.360928 17,475 334 381 -2304
2019-12-14 08:54:07 GMT 55.129162 -3.357072 17,675 334 381 -2240
2019-12-14 08:54:04 GMT 55.125092 -3.353496 17,675 334 382 -2496
2019-12-14 08:54:01 GMT 55.119991 -3.349082 18,100 331 384 -2944
2019-12-14 08:53:58 GMT 55.115158 -3.344852 17,900 334 383 -2496
2019-12-14 08:53:55 GMT 55.109665 -3.340086 18,075 333 383 -2624
2019-12-14 08:53:52 GMT 55.105469 -3.336265 18,250 333 383 -2816
2019-12-14 08:53:49 GMT 55.100922 -3.332008 18,350 332 383 -2880
2019-12-14 08:53:46 GMT 55.095737 -3.327026 18,550 331 384 -2944
2019-12-14 08:53:43 GMT 55.091919 -3.323281 18,700 331 384 -2880
2019-12-14 08:53:40 GMT 55.086987 -3.318454 18,725 331 384 -2880
2019-12-14 08:53:37 GMT 55.082516 -3.314043 19,000 331 384 -2624
2019-12-14 08:53:34 GMT 55.076511 -3.308133 19,300 331 386 -2496
2019-12-14 08:53:30 GMT 55.070599 -3.302307 19,175 331 386 -2496
2019-12-14 08:53:27 GMT 55.066875 -3.298645 19,325 331 386 -2496
2019-12-14 08:53:24 GMT 55.057053 -3.288907 19,500 331 386 -2880
2019-12-14 08:53:21 GMT 55.057053 -3.288907 19,625 331 387 -2624
2019-12-14 08:53:17 GMT 55.051327 -3.283248 19,725 331 387 -2496
2019-12-14 08:53:14 GMT 55.046623 -3.278587 19,950 331 388 -1920
2019-12-14 08:53:11 GMT 55.040268 -3.272310 20,000 331 390 -2048
2019-12-14 08:53:08 GMT 55.035686 -3.267767 20,050 331 391 -2368
2019-12-14 08:53:05 GMT 55.031124 -3.263189 20,225 331 391 -2752
2019-12-14 08:53:02 GMT 55.020973 -3.253118 20,400 331 391 -3072
2019-12-14 08:52:59 GMT 55.020973 -3.253118 20,550 331 390 -3264
2019-12-14 08:52:56 GMT 55.017296 -3.249456 20,700 331 389 -3520
2019-12-14 08:52:53 GMT 55.013340 -3.245544 20,825 331 390 -3520
2019-12-14 08:52:49 GMT 55.003143 -3.235557 21,150 331 389 -3456
2019-12-14 08:52:46 GMT 55.003143 -3.235557 21,475 331 388 -3200
2019-12-14 08:52:43 GMT 54.997742 -3.230304 21,400 331 388 -3328
2019-12-14 08:52:39 GMT 54.991425 -3.224164 21,625 331 388 -3008
2019-12-14 08:52:36 GMT 54.987488 -3.220287 21,825 331 388 -2944
2019-12-14 08:52:33 GMT 54.981777 -3.214666 21,925 331 388 -2944
2019-12-14 08:52:29 GMT 54.976089 -3.209058 22,025 331 387 -2880
2019-12-14 08:52:26 GMT 54.971603 -3.204615 22,250 331 387 -2816
2019-12-14 08:52:23 GMT 54.966228 -3.199269 22,400 331 388 -2880
2019-12-14 08:52:18 GMT 54.958733 -3.191861 22,700 331 389 -2432
2019-12-14 08:52:15 GMT 54.953018 -3.186278 22,775 331 389 -2432
2019-12-14 08:52:12 GMT 54.950409 -3.183692 22,850 331 390 -2368
2019-12-14 08:52:09 GMT 54.944069 -3.177462 23,050 331 391 -2304
2019-12-14 08:52:06 GMT 54.939228 -3.172718 23,050 331 391 -2240
2019-12-14 08:52:03 GMT 54.934799 -3.168263 23,175 331 393 -1856
2019-12-14 08:52:00 GMT 54.929352 -3.162932 23,300 331 396 -1920
2019-12-14 08:51:57 GMT 54.926472 -3.160067 23,375 331 396 -2048
2019-12-14 08:51:54 GMT 54.914837 -3.148665 23,525 331 398 -2048
2019-12-14 08:51:48 GMT 54.907013 -3.141040 23,825 331 401 -2496
2019-12-14 08:51:45 GMT 54.901794 -3.135950 23,900 331 402 -2368
2019-12-14 08:51:42 GMT 54.901794 -3.135950 23,950 331 402 -2304
2019-12-14 08:51:38 GMT 54.895374 -3.129772 24,050 331 402 -2176
2019-12-14 08:51:35 GMT 54.889206 -3.123752 24,200 331 404 -2304
2019-12-14 08:51:32 GMT 54.885864 -3.120521 24,325 331 405 -2368
2019-12-14 08:51:28 GMT 54.878201 -3.113209 24,525 331 405 -2752
2019-12-14 08:51:25 GMT 54.874191 -3.109292 24,650 331 405 -2496
2019-12-14 08:51:22 GMT 54.869263 -3.104553 24,775 331 405 -2368
2019-12-14 08:51:19 GMT 54.862652 -3.098145 24,875 331 406 -2176
2019-12-14 08:51:16 GMT 54.858368 -3.093983 25,000 331 408 -2432
2019-12-14 08:51:13 GMT 54.854130 -3.089822 25,150 331 407 -2752
2019-12-14 08:51:10 GMT 54.849289 -3.085139 25,325 331 408 -2816
2019-12-14 08:51:07 GMT 54.845352 -3.081261 25,375 330 409 -2304
2019-12-14 08:51:04 GMT 54.839466 -3.075423 25,525 330 408 -2304
2019-12-14 08:51:01 GMT 54.832905 -3.068681 25,675 330 409 -2304
2019-12-14 08:50:58 GMT 54.823242 -3.058642 25,875 329 409 -2304
2019-12-14 08:50:55 GMT 54.823242 -3.058642 25,875 329 410 -2368
2019-12-14 08:50:52 GMT 54.820129 -3.055411 26,000 329 411 -2496
2019-12-14 08:50:49 GMT 54.815689 -3.050726 26,100 329 411 -2688
2019-12-14 08:50:46 GMT 54.810650 -3.045460 26,250 329 411 -2752
2019-12-14 08:50:42 GMT 54.803295 -3.037803 26,500 329 412 -2752
2019-12-14 08:50:39 GMT 54.799339 -3.033558 26,500 329 412 -2816
2019-12-14 08:50:36 GMT 54.794586 -3.028672 26,950 329 412 -2816
2019-12-14 08:50:33 GMT 54.789562 -3.023404 26,900 329 413 -3008
2019-12-14 08:50:30 GMT 54.783829 -3.017282 27,000 329 413 -3072
2019-12-14 08:50:27 GMT 54.779800 -3.013081 27,125 329 412 -3136
2019-12-14 08:50:24 GMT 54.770012 -3.002846 27,425 329 412 -3008
2019-12-14 08:50:18 GMT 54.762424 -2.994856 27,650 329 413 -2752
2019-12-14 08:50:14 GMT 54.756271 -2.988524 27,800 330 413 -2496
2019-12-14 08:50:11 GMT 54.753891 -2.986019 27,850 330 413 -2304
2019-12-14 08:50:08 GMT 54.748169 -2.980122 28,075 329 415 -2048
2019-12-14 08:50:05 GMT 54.743134 -2.974871 28,375 330 417 -2368
2019-12-14 08:50:02 GMT 54.738125 -2.969721 28,300 330 417 -2368
2019-12-14 08:49:59 GMT 54.732788 -2.964127 28,300 329 418 -2432
2019-12-14 08:49:56 GMT 54.727322 -2.958402 28,525 329 418 -2304
2019-12-14 08:49:53 GMT 54.723225 -2.954157 28,550 329 419 -2368
2019-12-14 08:49:50 GMT 54.718185 -2.948941 28,700 329 420 -2688
2019-12-14 08:49:47 GMT 54.707062 -2.937389 28,975 330 422 -2624
2019-12-14 08:49:44 GMT 54.707062 -2.937389 29,000 330 422 -2816
2019-12-14 08:49:41 GMT 54.703674 -2.933915 29,275 330 422 -3392
2019-12-14 08:49:38 GMT 54.698181 -2.928180 29,300 329 421 -3456
2019-12-14 08:49:35 GMT 54.693199 -2.923029 29,450 329 421 -3520
2019-12-14 08:49:32 GMT 54.687523 -2.917120 29,675 329 420 -3904
2019-12-14 08:49:29 GMT 54.683937 -2.913374 29,825 329 419 -4224
2019-12-14 08:49:26 GMT 54.678177 -2.907338 30,075 329 417 -4352
2019-12-14 08:49:23 GMT 54.673740 -2.902721 30,375 329 416 -4032
2019-12-14 08:49:20 GMT 54.667645 -2.896312 30,525 329 415 -3776
2019-12-14 08:49:17 GMT 54.662476 -2.890902 30,675 329 415 -3456
2019-12-14 08:49:14 GMT 54.658722 -2.887062 30,750 329 415 -3264
2019-12-14 08:49:11 GMT 54.653164 -2.881248 31,075 329 416 -2624
2019-12-14 08:49:08 GMT 54.649338 -2.877287 31,075 330 417 -2496
2019-12-14 08:49:05 GMT 54.642883 -2.870582 31,300 329 418 -2240
2019-12-14 08:49:02 GMT 54.638966 -2.866516 31,325 329 419 -2368
2019-12-14 08:48:59 GMT 54.634598 -2.861938 31,425 329 420 -2432
2019-12-14 08:48:56 GMT 54.629562 -2.856695 31,550 329 421 -2496
2019-12-14 08:48:53 GMT 54.624023 -2.851035 31,775 330 423 -2560
2019-12-14 08:48:50 GMT 54.619492 -2.846348 31,875 330 423 -2432
2019-12-14 08:48:47 GMT 54.615189 -2.841905 31,950 330 426 -2176
2019-12-14 08:48:44 GMT 54.609009 -2.835523 32,250 329 429 -3136
2019-12-14 08:48:41 GMT 54.602890 -2.829312 32,350 330 427 -2560
2019-12-14 08:48:35 GMT 54.592552 -2.818659 32,750 330 429 -3008
2019-12-14 08:48:32 GMT 54.589203 -2.815163 32,675 330 429 -3008
2019-12-14 08:48:29 GMT 54.584084 -2.809920 32,950 329 429 -3136
2019-12-14 08:48:26 GMT 54.577881 -2.803452 32,975 329 429 -3136
2019-12-14 08:48:23 GMT 54.568268 -2.793435 33,175 329 429 -3264
2019-12-14 08:48:20 GMT 54.568268 -2.793435 33,375 329 429 -3328
2019-12-14 08:48:17 GMT 54.563507 -2.788530 35,550 330 428 -3200
2019-12-14 08:48:14 GMT 54.551743 -2.776310 33,825 330 428 -3200
2019-12-14 08:48:08 GMT 54.548309 -2.772836 33,875 330 428 -3200
2019-12-14 08:48:05 GMT 54.543301 -2.767639 34,075 330 427 -3200
2019-12-14 08:48:02 GMT 54.538376 -2.762577 34,275 329 427 -3200
2019-12-14 08:47:59 GMT 54.531601 -2.755630 34,375 330 426 -3136
2019-12-14 08:47:56 GMT 54.526657 -2.750540 34,600 330 426 -3136
2019-12-14 08:47:53 GMT 54.521610 -2.745334 34,775 330 426 -2944
2019-12-14 08:47:50 GMT 54.517365 -2.740927 34,850 330 425 -2816
2019-12-14 08:47:47 GMT 54.513138 -2.736594 34,975 330 426 -2624
2019-12-14 08:47:44 GMT 54.507156 -2.730426 35,125 330 425 -2368
2019-12-14 08:47:41 GMT 54.501526 -2.724690 35,275 330 426 -2112
2019-12-14 08:47:38 GMT 54.496490 -2.719520 35,350 330 426 -1792
2019-12-14 08:47:34 GMT 54.490883 -2.713790 35,450 330 426 -1472
2019-12-14 08:47:31 GMT 54.486145 -2.708938 35,500 330 426 -1280
2019-12-14 08:47:28 GMT 54.480412 -2.703053 35,575 330 426 -960
2019-12-14 08:47:25 GMT 54.474289 -2.696740 35,625 330 428 -1088
2019-12-14 08:47:22 GMT 54.469116 -2.691408 35,675 330 427 -1088
2019-12-14 08:47:19 GMT 54.465561 -2.687822 35,750 330 427 -1088
2019-12-14 08:47:16 GMT 54.460533 -2.682578 35,775 330 427 -1088
2019-12-14 08:47:13 GMT 54.454834 -2.676787 35,800 330 428 -1088
2019-12-14 08:47:10 GMT 54.448883 -2.670647 35,875 330 429 -960
2019-12-14 08:47:07 GMT 54.444565 -2.666265 35,950 330 430 -704
2019-12-14 08:47:04 GMT 54.438492 -2.659984 35,950 330 430 -576
2019-12-14 08:47:01 GMT 54.433205 -2.654530 35,975 330 430 -448
2019-12-14 08:46:58 GMT 54.428925 -2.650129 35,975 330 429 -320
2019-12-14 08:46:55 GMT 54.424641 -2.645791 36,000 330 429 -64
2019-12-14 08:46:52 GMT 54.417706 -2.638716 36,000 330 428 64
2019-12-14 08:46:49 GMT 54.414261 -2.635221 36,000 330 428 64
2019-12-14 08:46:46 GMT 54.409184 -2.630060 36,000 330 423 0
2019-12-14 08:46:43 GMT 54.404671 -2.625400 36,000 330 428 64
2019-12-14 08:46:40 GMT 54.399269 -2.619906 36,000 330 428 64
2019-12-14 08:46:37 GMT 54.392937 -2.613414 36,000 330 426 0
2019-12-14 08:46:34 GMT 54.387909 -2.608284 36,000 330 426 0
2019-12-14 08:46:31 GMT 54.381866 -2.602144 36,000 330 427 0
2019-12-14 08:46:28 GMT 54.377621 -2.597850 36,000 330 426 0
2019-12-14 08:46:25 GMT 54.366310 -2.586282 36,000 330 426 0
2019-12-14 08:46:22 GMT 54.366310 -2.586282 36,000 330 426 0
2019-12-14 08:46:19 GMT 54.362076 -2.582037 36,000 330 424 0
2019-12-14 08:46:16 GMT 54.358109 -2.577990 36,000 330 423 0
2019-12-14 08:46:13 GMT 54.353348 -2.573063 36,000 330 423 0
2019-12-14 08:46:10 GMT 54.343185 -2.562803 36,000 330 422 0
2019-12-14 08:46:04 GMT 54.336426 -2.555986 36,000 330 421 0
2019-12-14 08:46:01 GMT 54.332466 -2.551908 36,000 330 421 64
2019-12-14 08:45:58 GMT 54.328232 -2.547663 36,000 330 421 128
2019-12-14 08:45:55 GMT 54.321854 -2.541235 36,000 330 421 128
2019-12-14 08:45:52 GMT 54.318546 -2.537842 36,000 330 421 128
2019-12-14 08:45:49 GMT 54.314404 -2.533597 35,975 330 421 128
2019-12-14 08:45:46 GMT 54.306259 -2.525357 35,950 330 420 0
2019-12-14 08:45:43 GMT 54.303177 -2.522251 35,950 330 421 0
2019-12-14 08:45:40 GMT 54.298904 -2.517867 35,950 330 420 0
2019-12-14 08:45:37 GMT 54.286789 -2.505529 35,950 330 420 0
2019-12-14 08:45:34 GMT 54.286789 -2.505529 35,950 330 420 0
2019-12-14 08:45:31 GMT 54.283169 -2.501887 35,950 330 420 0
2019-12-14 08:45:28 GMT 54.273010 -2.491542 35,950 330 420 0
2019-12-14 08:45:22 GMT 54.268456 -2.486949 35,950 330 420 0
2019-12-14 08:45:19 GMT 54.256866 -2.475155 35,950 330 419 0
2019-12-14 08:45:16 GMT 54.256866 -2.475155 35,950 330 419 64
2019-12-14 08:45:13 GMT 54.252911 -2.471116 35,950 330 419 0
2019-12-14 08:45:10 GMT 54.248474 -2.466588 35,950 330 419 0
2019-12-14 08:45:07 GMT 54.243366 -2.461422 35,950 330 418 0
2019-12-14 08:45:04 GMT 54.238541 -2.456543 35,950 330 419 64
2019-12-14 08:45:01 GMT 54.232613 -2.450517 35,950 330 419 0
2019-12-14 08:44:58 GMT 54.223675 -2.441469 35,950 330 418 0
2019-12-14 08:44:52 GMT 54.217716 -2.435491 35,950 330 418 -64
2019-12-14 08:44:49 GMT 54.213684 -2.431353 35,950 330 417 -128
2019-12-14 08:44:46 GMT 54.206863 -2.424447 35,950 330 417 -128
2019-12-14 08:44:43 GMT 54.197231 -2.414650 35,975 330 417 -128
2019-12-14 08:44:40 GMT 54.197231 -2.414650 35,975 330 416 -128
2019-12-14 08:44:37 GMT 54.193405 -2.410793 35,975 330 416 -128
2019-12-14 08:44:34 GMT 54.186295 -2.403582 36,000 330 416 -64
2019-12-14 08:44:31 GMT 54.182568 -2.399866 36,000 330 416 -64
2019-12-14 08:44:28 GMT 54.174004 -2.391223 36,000 330 416 0
2019-12-14 08:44:25 GMT 54.174004 -2.391223 36,000 330 416 -64
2019-12-14 08:44:22 GMT 54.167767 -2.384841 36,000 330 416 -64
2019-12-14 08:44:19 GMT 54.162872 -2.379953 36,000 330 416 -64
2019-12-14 08:44:16 GMT 54.159668 -2.376735 36,000 330 415 0
2019-12-14 08:44:13 GMT 54.153030 -2.369986 36,000 330 415 0
2019-12-14 08:44:10 GMT 54.148491 -2.365453 35,975 330 415 64
2019-12-14 08:44:07 GMT 54.143463 -2.360413 35,975 330 415 64
2019-12-14 08:44:04 GMT 54.138290 -2.355155 35,975 330 415 64
2019-12-14 08:44:01 GMT 54.132710 -2.349539 35,975 330 415 64
2019-12-14 08:43:58 GMT 54.128311 -2.345189 35,975 330 415 64
2019-12-14 08:43:55 GMT 54.123093 -2.339931 35,975 330 415 0
2019-12-14 08:43:52 GMT 54.118790 -2.335615 35,975 330 415 0
2019-12-14 08:43:49 GMT 54.114555 -2.331363 35,975 330 415 64
2019-12-14 08:43:46 GMT 54.107899 -2.324659 35,975 330 415 64
2019-12-14 08:43:43 GMT 54.104462 -2.321254 35,975 330 415 64
2019-12-14 08:43:40 GMT 54.098682 -2.315449 35,975 330 415 128
2019-12-14 08:43:37 GMT 54.094482 -2.311210 35,950 330 416 128
2019-12-14 08:43:34 GMT 54.088028 -2.304696 35,950 330 416 64
2019-12-14 08:43:31 GMT 54.084641 -2.301322 35,950 330 416 64
2019-12-14 08:43:28 GMT 54.079971 -2.296613 35,950 330 416 64
2019-12-14 08:43:25 GMT 54.074848 -2.291457 35,950 330 415 0
2019-12-14 08:43:22 GMT 54.068710 -2.285235 35,950 330 415 0
2019-12-14 08:43:19 GMT 54.064980 -2.281521 35,950 330 414 0
2019-12-14 08:43:16 GMT 54.058506 -2.274978 35,950 330 413 0
2019-12-14 08:43:12 GMT 54.052414 -2.268834 35,950 330 413 0
2019-12-14 08:43:09 GMT 54.047474 -2.263911 35,950 330 413 0
2019-12-14 08:43:06 GMT 54.041702 -2.258083 35,950 330 414 0
2019-12-14 08:43:03 GMT 54.036850 -2.253217 35,950 330 414 0
2019-12-14 08:43:00 GMT 54.033279 -2.249608 35,950 330 414 0
2019-12-14 08:42:57 GMT 54.022522 -2.238868 35,950 330 414 0
2019-12-14 08:42:54 GMT 54.022522 -2.238868 35,950 330 414 0
2019-12-14 08:42:51 GMT 54.019077 -2.235395 35,950 330 414 0
2019-12-14 08:42:48 GMT 54.013676 -2.230063 35,950 330 414 0
2019-12-14 08:42:45 GMT 54.007965 -2.224339 35,950 330 414 0
2019-12-14 08:42:42 GMT 53.997803 -2.214230 35,975 330 414 -64
2019-12-14 08:42:39 GMT 53.997803 -2.214230 35,975 330 414 -64
2019-12-14 08:42:36 GMT 53.993099 -2.209464 35,975 330 414 -64
2019-12-14 08:42:33 GMT 53.988556 -2.204956 35,975 330 414 -128
2019-12-14 08:42:30 GMT 53.982487 -2.198881 35,975 330 414 -128
2019-12-14 08:42:27 GMT 53.979080 -2.195461 35,975 330 414 -128
2019-12-14 08:42:24 GMT 53.969730 -2.186118 35,975 330 414 -64
2019-12-14 08:42:18 GMT 53.963837 -2.180237 35,975 330 414 -64
2019-12-14 08:42:15 GMT 53.954231 -2.170608 36,000 330 415 -64
2019-12-14 08:42:12 GMT 53.954231 -2.170608 35,975 330 415 0
2019-12-14 08:42:09 GMT 53.948547 -2.164934 35,975 330 415 0
2019-12-14 08:42:06 GMT 53.944641 -2.161075 35,975 330 415 0
2019-12-14 08:42:03 GMT 53.938065 -2.154576 36,000 330 416 0
2019-12-14 08:41:59 GMT 53.932816 -2.149362 36,000 330 416 0
2019-12-14 08:41:56 GMT 53.926758 -2.143354 36,000 330 416 0
2019-12-14 08:41:53 GMT 53.922855 -2.139507 36,000 330 417 0
2019-12-14 08:41:50 GMT 53.917034 -2.133690 36,000 330 417 0
2019-12-14 08:41:47 GMT 53.910965 -2.127738 36,000 330 417 0
2019-12-14 08:41:44 GMT 53.907669 -2.124442 36,000 330 418 0
2019-12-14 08:41:41 GMT 53.903301 -2.120119 36,000 330 418 0
2019-12-14 08:41:38 GMT 53.893433 -2.110344 36,000 330 418 -64
2019-12-14 08:41:35 GMT 53.887428 -2.104367 36,000 330 418 -64
2019-12-14 08:41:32 GMT 53.887428 -2.104367 36,000 330 418 0
2019-12-14 08:41:29 GMT 53.883774 -2.100743 36,000 330 418 -64
2019-12-14 08:41:26 GMT 53.873417 -2.090472 36,000 330 418 -64
2019-12-14 08:41:20 GMT 53.868439 -2.085519 36,000 330 418 -64
2019-12-14 08:41:17 GMT 53.861961 -2.079082 36,000 330 416 0
2019-12-14 08:41:14 GMT 53.856750 -2.073993 36,000 330 416 0
2019-12-14 08:41:11 GMT 53.851593 -2.068883 36,000 330 415 64
2019-12-14 08:41:08 GMT 53.843109 -2.060502 36,000 330 415 64
2019-12-14 08:41:05 GMT 53.843109 -2.060502 36,000 330 414 64
2019-12-14 08:41:02 GMT 53.838036 -2.055494 36,000 330 414 64
2019-12-14 08:40:59 GMT 53.832821 -2.050323 36,000 330 413 64
2019-12-14 08:40:56 GMT 53.828724 -2.046284 36,000 330 412 0
2019-12-14 08:40:53 GMT 53.823185 -2.040791 36,000 330 412 0
2019-12-14 08:40:50 GMT 53.818176 -2.035767 36,000 330 411 0
2019-12-14 08:40:47 GMT 53.813049 -2.030744 36,000 330 411 0
2019-12-14 08:40:44 GMT 53.807262 -2.024958 36,000 330 419 1024
2019-12-14 08:40:41 GMT 53.803680 -2.021323 36,000 330 410 0
2019-12-14 08:40:38 GMT 53.797302 -2.014971 36,000 330 410 0
2019-12-14 08:40:35 GMT 53.794834 -2.012518 36,000 330 410 0
2019-12-14 08:40:32 GMT 53.788506 -2.006136 36,000 330 409 0
2019-12-14 08:40:29 GMT 53.784210 -2.001866 36,000 330 410 0
2019-12-14 08:40:26 GMT 53.779331 -1.997007 36,000 330 410 0
2019-12-14 08:40:23 GMT 53.772858 -1.990644 36,000 330 411 0
2019-12-14 08:40:20 GMT 53.768673 -1.986506 36,000 330 411 0
2019-12-14 08:40:17 GMT 53.763180 -1.981093 36,000 330 411 0
2019-12-14 08:40:14 GMT 53.759857 -1.977774 36,000 330 411 0
2019-12-14 08:40:11 GMT 53.754089 -1.972046 36,000 330 411 0
2019-12-14 08:40:08 GMT 53.749214 -1.967280 36,000 330 411 0
2019-12-14 08:40:05 GMT 53.745117 -1.963178 36,000 330 411 0
2019-12-14 08:40:02 GMT 53.738297 -1.956430 36,000 330 412 0
2019-12-14 08:39:59 GMT 53.734737 -1.952981 36,000 330 412 -64
2019-12-14 08:39:56 GMT 53.728592 -1.946934 36,000 330 412 -64
2019-12-14 08:39:53 GMT 53.724960 -1.943288 36,000 330 413 0
2019-12-14 08:39:50 GMT 53.720722 -1.939168 36,000 330 413 0
2019-12-14 08:39:47 GMT 53.714066 -1.932624 36,000 330 413 64
2019-12-14 08:39:44 GMT 53.710716 -1.929312 36,000 330 412 128
2019-12-14 08:39:41 GMT 53.705429 -1.924177 35,975 330 411 256
2019-12-14 08:39:38 GMT 53.699448 -1.918326 35,950 330 410 448
2019-12-14 08:39:35 GMT 53.694443 -1.913348 35,900 330 410 704
2019-12-14 08:39:32 GMT 53.688976 -1.908067 35,875 330 411 960
2019-12-14 08:39:29 GMT 53.686600 -1.905724 35,825 330 411 960
2019-12-14 08:39:26 GMT 53.680176 -1.899504 35,800 330 411 1024
2019-12-14 08:39:23 GMT 53.670540 -1.890133 35,675 331 412 1472
2019-12-14 08:39:20 GMT 53.670540 -1.890133 35,650 330 412 1536
2019-12-14 08:39:17 GMT 53.665279 -1.884963 35,600 330 412 1600
2019-12-14 08:39:14 GMT 53.660580 -1.880359 35,500 330 414 1664
2019-12-14 08:39:11 GMT 53.651367 -1.871364 35,375 330 416 1600
2019-12-14 08:39:08 GMT 53.651367 -1.871364 35,275 330 417 1536
2019-12-14 08:39:05 GMT 53.644520 -1.864687 35,275 330 418 1344
2019-12-14 08:39:02 GMT 53.635719 -1.856124 34,800 330 419 1024
2019-12-14 08:38:56 GMT 53.631546 -1.852060 35,125 330 419 960
2019-12-14 08:38:53 GMT 53.626144 -1.846802 35,075 330 420 832
2019-12-14 08:38:50 GMT 53.620468 -1.841152 35,000 330 420 704
2019-12-14 08:38:46 GMT 53.609371 -1.830274 34,925 330 420 640
2019-12-14 08:38:43 GMT 53.609371 -1.830274 34,900 330 420 640
2019-12-14 08:38:40 GMT 53.602432 -1.823417 34,900 330 420 640
2019-12-14 08:38:37 GMT 53.598850 -1.819934 34,850 330 420 640
2019-12-14 08:38:34 GMT 53.593777 -1.814925 34,800 330 419 832
2019-12-14 08:38:31 GMT 53.582886 -1.804269 34,775 330 419 768
2019-12-14 08:38:28 GMT 53.582886 -1.804269 34,775 330 419 832
2019-12-14 08:38:25 GMT 53.578693 -1.800223 34,725 330 419 832
2019-12-14 08:38:22 GMT 53.572906 -1.794538 34,675 330 419 1024
2019-12-14 08:38:19 GMT 53.569614 -1.791337 34,550 330 419 1024
2019-12-14 08:38:16 GMT 53.564621 -1.786377 34,600 330 419 1088
2019-12-14 08:38:13 GMT 53.558815 -1.780755 34,500 330 419 896
2019-12-14 08:38:10 GMT 53.553177 -1.775234 34,475 330 419 704
2019-12-14 08:38:07 GMT 53.547874 -1.770091 34,450 330 419 768
2019-12-14 08:38:04 GMT 53.542149 -1.764517 34,400 330 419 640
2019-12-14 08:38:01 GMT 53.537399 -1.759832 34,375 330 418 512
2019-12-14 08:37:58 GMT 53.532143 -1.754662 34,350 330 418 384
2019-12-14 08:37:55 GMT 53.529720 -1.752239 34,350 330 418 384
2019-12-14 08:37:52 GMT 53.523193 -1.745884 34,325 330 416 384
2019-12-14 08:37:49 GMT 53.517700 -1.740470 33,950 330 416 576
2019-12-14 08:37:46 GMT 53.514313 -1.737213 34,250 330 415 640
2019-12-14 08:37:43 GMT 53.508026 -1.731074 34,225 330 414 896
2019-12-14 08:37:40 GMT 53.503143 -1.726345 34,150 330 414 1472
2019-12-14 08:37:37 GMT 53.498947 -1.722268 34,100 330 415 1920
2019-12-14 08:37:34 GMT 53.492844 -1.716378 33,950 331 417 2048
2019-12-14 08:37:31 GMT 53.482590 -1.706491 33,800 331 418 2048
2019-12-14 08:37:28 GMT 53.482590 -1.706491 33,750 331 420 1856
2019-12-14 08:37:25 GMT 53.479431 -1.703430 33,575 331 419 1920
2019-12-14 08:37:22 GMT 53.474442 -1.698643 33,650 331 420 1856
2019-12-14 08:37:19 GMT 53.462906 -1.687500 33,400 330 422 1216
2019-12-14 08:37:16 GMT 53.462906 -1.687500 33,450 330 421 1344
2019-12-14 08:37:13 GMT 53.457779 -1.682556 33,350 330 422 1216
2019-12-14 08:37:10 GMT 53.452862 -1.677758 33,250 331 422 1152
2019-12-14 08:37:07 GMT 53.447369 -1.672426 33,275 331 422 1152
2019-12-14 08:37:04 GMT 53.442169 -1.667411 33,200 331 422 1088
2019-12-14 08:37:01 GMT 53.438507 -1.663879 33,125 330 421 512
2019-12-14 08:36:58 GMT 53.433334 -1.658857 33,125 330 422 640
2019-12-14 08:36:55 GMT 53.428795 -1.654493 33,100 330 421 576
2019-12-14 08:36:52 GMT 53.417389 -1.643425 33,050 330 420 384
2019-12-14 08:36:49 GMT 53.417389 -1.643425 33,000 330 419 384
2019-12-14 08:36:46 GMT 53.412323 -1.638532 32,975 331 416 832
2019-12-14 08:36:43 GMT 53.407242 -1.633651 33,000 330 419 448
2019-12-14 08:36:40 GMT 53.402493 -1.629046 32,975 331 418 576
2019-12-14 08:36:37 GMT 53.396488 -1.623230 32,950 331 418 640
2019-12-14 08:36:34 GMT 53.393097 -1.619934 32,875 331 418 704
2019-12-14 08:36:31 GMT 53.387970 -1.614990 32,850 330 417 832
2019-12-14 08:36:28 GMT 53.383026 -1.610203 31,075 331 418 1216
2019-12-14 08:36:25 GMT 53.376842 -1.604246 32,775 331 416 1088
2019-12-14 08:36:22 GMT 53.366787 -1.594552 32,675 331 416 1152
2019-12-14 08:36:19 GMT 53.366787 -1.594552 32,500 331 418 1280
2019-12-14 08:36:16 GMT 53.361420 -1.589408 32,600 331 418 1280
2019-12-14 08:36:13 GMT 53.358124 -1.586190 32,500 331 418 1152
2019-12-14 08:36:10 GMT 53.352962 -1.581304 32,450 331 418 1088
2019-12-14 08:36:07 GMT 53.343418 -1.572095 32,425 331 418 896
2019-12-14 08:36:01 GMT 53.338531 -1.567357 32,225 331 418 832
2019-12-14 08:35:58 GMT 53.332710 -1.561755 32,325 331 418 832
2019-12-14 08:35:55 GMT 53.328278 -1.557547 32,300 331 417 832
2019-12-14 08:35:52 GMT 53.323334 -1.552761 32,125 331 417 1152
2019-12-14 08:35:49 GMT 53.316238 -1.545933 31,775 331 417 1152
2019-12-14 08:35:45 GMT 53.310226 -1.540186 32,125 331 417 1152
2019-12-14 08:35:42 GMT 53.305851 -1.535986 32,025 330 418 1024
2019-12-14 08:35:39 GMT 53.301544 -1.531808 32,025 331 418 1088
2019-12-14 08:35:36 GMT 53.294220 -1.524824 31,925 331 418 1024
2019-12-14 08:35:32 GMT 53.289917 -1.520665 31,875 330 418 1024
2019-12-14 08:35:29 GMT 53.279690 -1.510782 31,650 330 417 448
2019-12-14 08:35:26 GMT 53.272614 -1.503915 31,675 330 418 576
2019-12-14 08:35:23 GMT 53.272614 -1.503915 31,725 330 418 704
2019-12-14 08:35:20 GMT 53.269863 -1.501249 31,675 330 418 576
2019-12-14 08:35:17 GMT 53.263767 -1.495352 31,675 330 417 512
2019-12-14 08:35:14 GMT 53.255035 -1.486921 31,650 330 416 320
2019-12-14 08:35:08 GMT 53.249039 -1.481114 31,625 330 415 320
2019-12-14 08:35:05 GMT 53.243866 -1.476170 31,625 330 414 256
2019-12-14 08:35:02 GMT 53.239048 -1.471522 31,575 330 412 256
2019-12-14 08:34:59 GMT 53.235092 -1.467725 31,600 330 413 256
2019-12-14 08:34:56 GMT 53.230343 -1.463120 31,575 331 412 256
2019-12-14 08:34:53 GMT 53.223640 -1.456658 31,550 331 412 320
2019-12-14 08:34:50 GMT 53.220016 -1.453177 31,550 331 410 320
2019-12-14 08:34:47 GMT 53.215256 -1.448626 31,525 331 410 320
2019-12-14 08:34:44 GMT 53.204865 -1.438660 30,975 331 404 896
2019-12-14 08:34:38 GMT 53.198868 -1.433010 31,425 331 408 640
2019-12-14 08:34:35 GMT 53.193611 -1.427980 31,375 331 408 768
2019-12-14 08:34:32 GMT 53.190308 -1.424830 31,350 331 408 1216
2019-12-14 08:34:29 GMT 53.185501 -1.420218 31,325 331 408 1216
2019-12-14 08:34:26 GMT 53.174713 -1.409804 31,250 330 407 832
2019-12-14 08:34:23 GMT 53.174713 -1.409804 29,250 331 407 832
2019-12-14 08:34:20 GMT 53.170715 -1.406015 31,150 331 407 576
2019-12-14 08:34:17 GMT 53.164948 -1.400521 31,150 331 403 448
2019-12-14 08:34:14 GMT 53.161423 -1.397147 31,125 331 406 448
2019-12-14 08:34:11 GMT 53.155792 -1.391732 31,075 331 404 640
2019-12-14 08:34:08 GMT 53.149155 -1.385328 31,025 331 404 960
2019-12-14 08:34:05 GMT 53.146729 -1.383022 31,000 331 404 896
2019-12-14 08:34:02 GMT 53.141148 -1.377653 30,950 331 403 832
2019-12-14 08:33:59 GMT 53.137299 -1.373997 30,925 331 403 832
2019-12-14 08:33:56 GMT 53.132080 -1.369053 30,900 331 403 640
2019-12-14 08:33:53 GMT 53.121597 -1.359009 30,850 331 402 384
2019-12-14 08:33:50 GMT 53.121597 -1.359009 30,850 331 400 384
2019-12-14 08:33:47 GMT 53.116756 -1.354388 30,825 331 399 576
2019-12-14 08:33:44 GMT 53.113216 -1.351076 30,800 331 399 512
2019-12-14 08:33:41 GMT 53.106949 -1.345119 30,750 331 399 960
2019-12-14 08:33:38 GMT 53.102875 -1.341274 30,650 331 398 1216
2019-12-14 08:33:35 GMT 53.098526 -1.337115 30,650 331 399 1536
2019-12-14 08:33:32 GMT 53.087288 -1.326521 30,500 331 399 1408
2019-12-14 08:33:29 GMT 53.087288 -1.326521 30,450 331 400 1344
2019-12-14 08:33:26 GMT 53.084030 -1.323382 30,425 331 400 1408
2019-12-14 08:33:23 GMT 53.077194 -1.316910 30,275 331 400 1408
2019-12-14 08:33:20 GMT 53.073231 -1.313102 30,250 331 401 1344
2019-12-14 08:33:17 GMT 53.069412 -1.309509 30,225 331 402 1216
2019-12-14 08:33:14 GMT 53.059296 -1.299896 30,100 331 402 896
2019-12-14 08:33:11 GMT 53.059296 -1.299896 30,075 331 402 896
2019-12-14 08:33:08 GMT 53.055027 -1.295837 30,025 331 401 960
2019-12-14 08:33:05 GMT 53.048492 -1.289673 30,025 331 400 960
2019-12-14 08:33:02 GMT 53.043869 -1.285248 29,950 331 400 1024
2019-12-14 08:32:59 GMT 53.040665 -1.282196 29,925 331 400 1024
2019-12-14 08:32:56 GMT 53.036407 -1.278181 29,900 331 400 1088
2019-12-14 08:32:53 GMT 53.030640 -1.272736 29,775 331 400 1216
2019-12-14 08:32:50 GMT 53.025558 -1.267901 29,750 331 400 1280
2019-12-14 08:32:47 GMT 53.020386 -1.263046 29,650 331 400 1280
2019-12-14 08:32:44 GMT 53.010616 -1.253775 29,525 331 400 1152
2019-12-14 08:32:41 GMT 53.005508 -1.248932 29,525 331 400 1152
2019-12-14 08:32:38 GMT 53.005508 -1.248932 29,500 331 401 1152
2019-12-14 08:32:35 GMT 53.001251 -1.244965 29,400 331 401 1152
2019-12-14 08:32:32 GMT 52.996216 -1.240158 29,325 331 401 1152
2019-12-14 08:32:29 GMT 52.991455 -1.235657 28,675 331 395 704
2019-12-14 08:32:26 GMT 52.987473 -1.231918 29,325 331 401 1088
2019-12-14 08:32:23 GMT 52.981380 -1.226153 29,000 331 400 1088
2019-12-14 08:32:20 GMT 52.976486 -1.221542 29,150 331 400 1088
2019-12-14 08:32:17 GMT 52.972443 -1.217678 29,125 331 400 1088
2019-12-14 08:32:14 GMT 52.968487 -1.213989 29,050 331 401 1024
2019-12-14 08:32:11 GMT 52.962112 -1.207886 28,975 331 400 896
2019-12-14 08:32:08 GMT 52.957409 -1.203395 28,925 331 400 832
2019-12-14 08:32:05 GMT 52.951916 -1.198216 28,900 331 400 768
2019-12-14 08:32:02 GMT 52.947647 -1.194153 28,875 331 400 704
2019-12-14 08:31:59 GMT 52.943256 -1.190055 28,850 331 399 640
2019-12-14 08:31:56 GMT 52.939251 -1.186288 28,825 331 399 704
2019-12-14 08:31:53 GMT 52.934734 -1.181972 28,775 331 399 704
2019-12-14 08:31:50 GMT 52.929016 -1.176605 28,750 331 399 640
2019-12-14 08:31:47 GMT 52.923191 -1.171143 28,700 331 398 640
2019-12-14 08:31:44 GMT 52.919220 -1.167374 28,675 331 396 640
2019-12-14 08:31:41 GMT 52.915466 -1.163864 28,650 331 396 576
2019-12-14 08:31:38 GMT 52.909645 -1.158351 28,625 331 395 576
2019-12-14 08:31:35 GMT 52.904011 -1.153015 28,500 331 394 704
2019-12-14 08:31:32 GMT 52.900681 -1.149902 28,425 331 394 640
2019-12-14 08:31:29 GMT 52.895645 -1.145172 28,525 331 394 704
2019-12-14 08:31:26 GMT 52.889442 -1.139361 28,475 331 394 640
2019-12-14 08:31:23 GMT 52.886600 -1.136693 28,425 331 393 576
2019-12-14 08:31:20 GMT 52.877106 -1.127777 28,425 331 392 576
2019-12-14 08:31:17 GMT 52.877106 -1.127777 28,400 331 390 512
2019-12-14 08:31:14 GMT 52.870789 -1.121826 28,375 331 390 512
2019-12-14 08:31:11 GMT 52.863602 -1.115189 28,350 331 388 576
2019-12-14 08:31:05 GMT 52.853348 -1.105499 28,275 331 387 704
2019-12-14 08:31:02 GMT 52.853348 -1.105499 28,250 331 387 768
2019-12-14 08:30:59 GMT 52.847717 -1.100235 28,225 331 386 832
2019-12-14 08:30:56 GMT 52.844650 -1.097412 28,150 331 386 896
2019-12-14 08:30:53 GMT 52.839211 -1.092276 28,125 331 386 896
2019-12-14 08:30:50 GMT 52.833763 -1.087176 28,075 331 385 896
2019-12-14 08:30:47 GMT 52.825104 -1.079102 27,800 331 378 896
2019-12-14 08:30:44 GMT 52.825104 -1.079102 28,000 331 384 896
2019-12-14 08:30:41 GMT 52.819702 -1.074066 27,950 331 382 768
2019-12-14 08:30:38 GMT 52.810867 -1.065750 27,875 331 382 768
2019-12-14 08:30:35 GMT 52.810867 -1.065750 27,850 331 381 768
2019-12-14 08:30:32 GMT 52.806484 -1.061672 27,825 331 381 768
2019-12-14 08:30:29 GMT 52.801941 -1.057434 27,800 331 380 832
2019-12-14 08:30:26 GMT 52.798103 -1.053824 27,750 331 379 896
2019-12-14 08:30:23 GMT 52.793404 -1.049351 27,700 331 379 896
2019-12-14 08:30:20 GMT 52.789352 -1.045585 27,625 331 378 896
2019-12-14 08:30:17 GMT 52.783207 -1.039777 27,600 331 377 896
2019-12-14 08:30:14 GMT 52.778870 -1.035767 27,575 331 377 704
2019-12-14 08:30:11 GMT 52.775391 -1.032486 27,550 331 377 704
2019-12-14 08:30:08 GMT 52.769661 -1.027065 27,500 331 376 640
2019-12-14 08:30:05 GMT 52.765518 -1.023220 27,425 331 374 704
2019-12-14 08:30:02 GMT 52.761749 -1.019745 27,425 331 368 1088
2019-12-14 08:29:59 GMT 52.756393 -1.014744 27,350 331 372 896
2019-12-14 08:29:56 GMT 52.751953 -1.010590 27,350 331 372 896
2019-12-14 08:29:53 GMT 52.748154 -1.007004 27,300 331 371 960
2019-12-14 08:29:50 GMT 52.743759 -1.002884 27,300 331 371 1024
2019-12-14 08:29:47 GMT 52.738705 -0.998186 27,200 331 370 1024
2019-12-14 08:29:44 GMT 52.734516 -0.994263 27,150 331 370 1088
2019-12-14 08:29:41 GMT 52.730091 -0.990104 26,975 331 368 1088
2019-12-14 08:29:38 GMT 52.725391 -0.985709 27,050 331 369 1024
2019-12-14 08:29:35 GMT 52.721016 -0.981628 26,925 331 369 1024
2019-12-14 08:29:32 GMT 52.716293 -0.977249 26,950 331 367 1088
2019-12-14 08:29:29 GMT 52.711845 -0.973075 26,775 331 366 960
2019-12-14 08:29:26 GMT 52.708740 -0.970230 26,850 331 367 1024
2019-12-14 08:29:23 GMT 52.704300 -0.966110 26,800 331 366 896
2019-12-14 08:29:20 GMT 52.699814 -0.961914 26,775 331 366 896
2019-12-14 08:29:17 GMT 52.693817 -0.956345 26,700 331 365 896
2019-12-14 08:29:14 GMT 52.690750 -0.953445 26,600 331 364 960
2019-12-14 08:29:11 GMT 52.685165 -0.948257 26,625 331 363 1024
2019-12-14 08:29:08 GMT 52.680981 -0.944353 26,550 331 363 1088
2019-12-14 08:29:05 GMT 52.678024 -0.941620 26,525 331 363 1216
2019-12-14 08:29:02 GMT 52.671661 -0.935669 26,425 331 363 1408
2019-12-14 08:28:59 GMT 52.667862 -0.932159 26,300 331 361 1280
2019-12-14 08:28:56 GMT 52.664173 -0.928659 26,275 331 362 1280
2019-12-14 08:28:53 GMT 52.658844 -0.923767 26,250 331 362 1280
2019-12-14 08:28:50 GMT 52.654678 -0.919876 26,150 331 361 1280
2019-12-14 08:28:46 GMT 52.649094 -0.914688 26,050 331 361 1280
2019-12-14 08:28:43 GMT 52.645340 -0.911255 26,025 331 361 1344
2019-12-14 08:28:40 GMT 52.636757 -0.903233 25,900 331 360 1344
2019-12-14 08:28:37 GMT 52.636757 -0.903233 25,850 331 360 1344
2019-12-14 08:28:34 GMT 52.631821 -0.898682 25,800 331 360 1280
2019-12-14 08:28:31 GMT 52.627899 -0.895081 25,650 331 358 1088
2019-12-14 08:28:28 GMT 52.622742 -0.890285 25,725 331 359 1216
2019-12-14 08:28:25 GMT 52.619705 -0.887451 25,625 331 358 1088
2019-12-14 08:28:22 GMT 52.613804 -0.881967 25,550 331 358 1088
2019-12-14 08:28:19 GMT 52.610916 -0.879299 25,525 331 357 1088
2019-12-14 08:28:16 GMT 52.605286 -0.874041 25,475 331 356 1024
2019-12-14 08:28:13 GMT 52.600445 -0.869568 25,400 331 355 896
2019-12-14 08:28:07 GMT 52.592560 -0.862198 25,300 331 352 896
2019-12-14 08:28:04 GMT 52.588852 -0.858738 25,250 331 351 1088
2019-12-14 08:28:01 GMT 52.584198 -0.854422 25,250 331 351 896
2019-12-14 08:27:58 GMT 52.579697 -0.850296 25,200 331 351 1280
2019-12-14 08:27:55 GMT 52.575397 -0.846261 25,050 331 351 1728
2019-12-14 08:27:52 GMT 52.571770 -0.842887 25,025 331 351 1728
2019-12-14 08:27:49 GMT 52.567673 -0.839120 24,975 331 351 1792
2019-12-14 08:27:46 GMT 52.562550 -0.834412 24,825 331 351 2048
2019-12-14 08:27:43 GMT 52.559757 -0.831822 24,700 331 352 1984
2019-12-14 08:27:40 GMT 52.554638 -0.827114 24,650 331 352 1920
2019-12-14 08:27:37 GMT 52.551224 -0.823975 24,575 331 352 1856
2019-12-14 08:27:34 GMT 52.546829 -0.819855 24,375 331 352 1856
2019-12-14 08:27:31 GMT 52.541508 -0.814950 24,400 331 352 1792
2019-12-14 08:27:28 GMT 52.537399 -0.811157 24,225 331 353 1984
2019-12-14 08:27:25 GMT 52.532757 -0.806946 24,150 331 353 2176
2019-12-14 08:27:22 GMT 52.529160 -0.803604 24,075 331 354 2176
2019-12-14 08:27:19 GMT 52.524170 -0.799103 23,875 331 354 2176
2019-12-14 08:27:16 GMT 52.521011 -0.796127 23,775 331 355 2240
2019-12-14 08:27:13 GMT 52.517349 -0.792821 23,775 331 355 2240
2019-12-14 08:27:10 GMT 52.511063 -0.787092 23,600 331 356 2240
2019-12-14 08:27:07 GMT 52.508129 -0.784424 23,525 331 357 2176
2019-12-14 08:27:04 GMT 52.504074 -0.780716 23,425 331 357 2048
2019-12-14 08:27:01 GMT 52.494957 -0.772339 23,250 331 357 1792
2019-12-14 08:26:58 GMT 52.494957 -0.772339 23,225 331 357 1792
2019-12-14 08:26:55 GMT 52.489517 -0.767365 23,050 331 356 1408
2019-12-14 08:26:52 GMT 52.486530 -0.764570 23,050 331 357 1536
2019-12-14 08:26:49 GMT 52.483040 -0.761353 22,700 331 350 1792
2019-12-14 08:26:46 GMT 52.478119 -0.756836 22,900 331 355 1280
2019-12-14 08:26:43 GMT 52.473869 -0.752956 22,800 331 353 1216
2019-12-14 08:26:40 GMT 52.464790 -0.744559 22,675 331 353 1216
2019-12-14 08:26:37 GMT 52.464790 -0.744559 22,700 331 353 1280
2019-12-14 08:26:34 GMT 52.460815 -0.740967 22,650 331 352 1344
2019-12-14 08:26:31 GMT 52.455688 -0.736237 22,600 331 351 1472
2019-12-14 08:26:28 GMT 52.451477 -0.732396 22,550 331 351 1600
2019-12-14 08:26:25 GMT 52.447891 -0.729178 22,375 331 350 1984
2019-12-14 08:26:22 GMT 52.443649 -0.725250 22,225 331 350 1984
2019-12-14 08:26:19 GMT 52.439934 -0.721880 22,225 331 350 1984
2019-12-14 08:26:16 GMT 52.434952 -0.717329 21,850 331 350 1856
2019-12-14 08:26:13 GMT 52.431656 -0.714340 22,075 332 349 1728
2019-12-14 08:26:10 GMT 52.426434 -0.709560 21,925 331 350 1792
2019-12-14 08:26:07 GMT 52.421494 -0.705109 21,225 332 347 2304
2019-12-14 08:26:04 GMT 52.417374 -0.701370 21,750 332 349 1728
2019-12-14 08:26:01 GMT 52.410553 -0.695190 21,600 332 349 1984
2019-12-14 08:25:58 GMT 52.404694 -0.689926 21,575 332 349 1984
2019-12-14 08:25:55 GMT 52.404694 -0.689926 21,350 332 347 2048
2019-12-14 08:25:52 GMT 52.401806 -0.687352 21,350 332 347 2112
2019-12-14 08:25:49 GMT 52.396042 -0.682220 21,175 332 347 2368
2019-12-14 08:25:46 GMT 52.392448 -0.679034 21,150 332 348 2432
2019-12-14 08:25:43 GMT 52.388397 -0.675424 21,025 332 348 2368
2019-12-14 08:25:40 GMT 52.383884 -0.671422 20,900 332 348 2240
2019-12-14 08:25:37 GMT 52.380249 -0.668182 20,750 332 348 2304
2019-12-14 08:25:34 GMT 52.374802 -0.663376 20,675 332 348 2368
2019-12-14 08:25:30 GMT 52.369267 -0.658473 20,500 332 348 2560
2019-12-14 08:25:27 GMT 52.362350 -0.652313 20,225 332 348 2496
2019-12-14 08:25:24 GMT 52.362350 -0.652313 20,225 333 349 2368
2019-12-14 08:25:21 GMT 52.356464 -0.647252 20,125 333 351 2240
2019-12-14 08:25:18 GMT 52.348316 -0.641052 19,825 339 357 1664
2019-12-14 08:25:15 GMT 52.348316 -0.641052 19,925 340 359 1664
2019-12-14 08:25:12 GMT 52.343628 -0.638275 19,875 342 361 1600
2019-12-14 08:25:09 GMT 52.339520 -0.636187 19,800 345 364 1536
2019-12-14 08:25:06 GMT 52.334381 -0.634003 19,775 347 367 1536
2019-12-14 08:25:03 GMT 52.330124 -0.632629 19,675 350 370 1536
2019-12-14 08:25:00 GMT 52.323715 -0.631104 19,575 354 375 1472
2019-12-14 08:24:57 GMT 52.319828 -0.630458 19,500 356 376 1536
2019-12-14 08:24:54 GMT 52.313873 -0.629807 19,225 357 374 1472
2019-12-14 08:24:51 GMT 52.303627 -0.628810 19,300 357 374 1472
2019-12-14 08:24:48 GMT 52.303627 -0.628810 19,275 357 373 1408
2019-12-14 08:24:45 GMT 52.297436 -0.628183 19,225 357 372 1280
2019-12-14 08:24:42 GMT 52.292732 -0.627712 19,150 357 371 1216
2019-12-14 08:24:39 GMT 52.286774 -0.627084 17,625 357 369 1536
2019-12-14 08:24:36 GMT 52.278214 -0.626297 18,925 357 367 1408
2019-12-14 08:24:30 GMT 52.273090 -0.625750 18,900 357 367 1472
2019-12-14 08:24:27 GMT 52.268063 -0.625357 18,750 357 365 1664
2019-12-14 08:24:24 GMT 52.261173 -0.624730 18,675 357 364 1792
2019-12-14 08:24:21 GMT 52.257019 -0.624313 18,625 357 364 1792
2019-12-14 08:24:18 GMT 52.252716 -0.623932 18,525 358 363 1856
2019-12-14 08:24:15 GMT 52.246368 -0.623396 18,325 357 361 1856
2019-12-14 08:24:12 GMT 52.242691 -0.623093 18,350 357 361 1920
2019-12-14 08:24:09 GMT 52.237701 -0.622635 18,250 357 360 1920
2019-12-14 08:24:06 GMT 52.231239 -0.622140 18,125 357 360 1920
2019-12-14 08:24:03 GMT 52.223648 -0.621490 17,100 357 362 2560
2019-12-14 08:23:57 GMT 52.217010 -0.620956 17,475 358 358 3648
2019-12-14 08:23:54 GMT 52.212944 -0.620571 17,750 358 357 2624
2019-12-14 08:23:51 GMT 52.208241 -0.620178 17,550 358 357 3008
2019-12-14 08:23:48 GMT 52.203186 -0.619812 17,550 358 358 3520
2019-12-14 08:23:45 GMT 52.197117 -0.619315 15,025 357 361 3392
2019-12-14 08:23:42 GMT 52.193024 -0.618973 17,075 357 362 2944
2019-12-14 08:23:39 GMT 52.188736 -0.618609 16,875 357 361 2560
2019-12-14 08:23:36 GMT 52.181660 -0.617902 16,750 357 362 2560
2019-12-14 08:23:33 GMT 52.176956 -0.617371 16,550 357 361 2432
2019-12-14 08:23:30 GMT 52.171001 -0.616725 16,500 357 361 2560
2019-12-14 08:23:26 GMT 52.166672 -0.616255 16,475 357 361 2496
2019-12-14 08:23:23 GMT 52.160889 -0.615616 16,150 356 361 2944
2019-12-14 08:23:20 GMT 52.156128 -0.615082 15,900 356 362 3200
2019-12-14 08:23:17 GMT 52.151775 -0.614528 15,950 356 362 3072
2019-12-14 08:23:14 GMT 52.141159 -0.613116 15,450 355 362 2624
2019-12-14 08:23:11 GMT 52.141159 -0.613116 15,600 355 362 2752
2019-12-14 08:23:08 GMT 52.134735 -0.612174 15,475 355 362 2624
2019-12-14 08:23:05 GMT 52.130264 -0.611496 15,400 354 361 1920
2019-12-14 08:23:02 GMT 52.125137 -0.610580 15,325 355 361 2176
2019-12-14 08:22:59 GMT 52.122772 -0.610212 15,125 354 360 1792
2019-12-14 08:22:56 GMT 52.115833 -0.609035 15,100 354 358 1728
2019-12-14 08:22:53 GMT 52.110435 -0.608015 15,025 354 357 1792
2019-12-14 08:22:50 GMT 52.106369 -0.607300 14,925 354 355 1728
2019-12-14 08:22:47 GMT 52.100922 -0.606308 14,750 354 352 1920
2019-12-14 08:22:44 GMT 52.095398 -0.605268 14,750 354 352 2048
2019-12-14 08:22:41 GMT 52.090393 -0.604324 14,675 354 351 2240
2019-12-14 08:22:38 GMT 52.087143 -0.603714 14,525 354 350 2176
2019-12-14 08:22:35 GMT 52.077393 -0.601883 14,275 354 349 2560
2019-12-14 08:22:32 GMT 52.077393 -0.601883 13,825 354 349 2880
2019-12-14 08:22:29 GMT 52.071991 -0.600891 14,075 354 349 2880
2019-12-14 08:22:26 GMT 52.068192 -0.600204 13,950 354 349 2880
2019-12-14 08:22:23 GMT 52.062767 -0.599147 13,900 354 349 2816
2019-12-14 08:22:20 GMT 52.057644 -0.598206 13,700 354 349 2560
2019-12-14 08:22:17 GMT 52.046722 -0.596085 13,550 354 348 2176
2019-12-14 08:22:14 GMT 52.046722 -0.596085 13,475 354 348 2176
2019-12-14 08:22:11 GMT 52.042236 -0.595145 13,275 353 346 2240
2019-12-14 08:22:08 GMT 52.037842 -0.594254 13,250 353 345 2304
2019-12-14 08:22:04 GMT 52.032787 -0.593262 13,100 353 344 2304
2019-12-14 08:22:01 GMT 52.026260 -0.591888 12,975 353 343 2304
2019-12-14 08:21:58 GMT 52.023941 -0.591457 12,825 353 342 2368
2019-12-14 08:21:55 GMT 52.018295 -0.590286 12,800 353 342 2368
2019-12-14 08:21:52 GMT 52.013744 -0.589338 12,725 353 342 2304
2019-12-14 08:21:49 GMT 52.008858 -0.588396 12,250 353 335 2496
2019-12-14 08:21:46 GMT 52.004654 -0.587540 12,475 353 338 1984
2019-12-14 08:21:43 GMT 51.999733 -0.586513 12,400 353 336 2304
2019-12-14 08:21:40 GMT 51.994171 -0.585327 12,175 353 334 2496
2019-12-14 08:21:37 GMT 51.990425 -0.584473 12,050 353 333 2560
2019-12-14 08:21:34 GMT 51.985535 -0.583452 10,875 353 333 2688
2019-12-14 08:21:31 GMT 51.981308 -0.582581 11,875 353 332 2688
2019-12-14 08:21:28 GMT 51.976784 -0.581648 11,200 13 329 896
2019-12-14 08:21:25 GMT 51.970638 -0.580470 11,525 354 332 2368
2019-12-14 08:21:22 GMT 51.967712 -0.579910 10,975 13 326 960
2019-12-14 08:21:19 GMT 51.962444 -0.579215 11,375 0 334 1472
2019-12-14 08:21:16 GMT 51.957649 -0.578823 11,250 5 334 1024
2019-12-14 08:21:13 GMT 51.949551 -0.579215 11,150 3 334 1152
2019-12-14 08:21:10 GMT 51.944756 -0.580000 11,075 8 334 768
2019-12-14 08:21:07 GMT 51.944756 -0.580000 11,075 9 334 768
2019-12-14 08:21:04 GMT 51.938782 -0.581741 11,050 11 332 832
2019-12-14 08:21:01 GMT 51.934341 -0.583344 11,000 13 285 2816
2019-12-14 08:20:58 GMT 51.931023 -0.584551 10,975 13 329 896
2019-12-14 08:20:55 GMT 51.925716 -0.586591 10,275 13 288 2240
2019-12-14 08:20:52 GMT 51.921387 -0.588226 10,850 13 320 1088
2019-12-14 08:20:49 GMT 51.917953 -0.589600 10,825 13 318 1088
2019-12-14 08:20:46 GMT 51.908028 -0.593497 10,500 13 301 1216
2019-12-14 08:20:43 GMT 51.908028 -0.593497 10,675 13 308 1152
2019-12-14 08:20:39 GMT 51.904068 -0.595067 10,625 13 303 1216
2019-12-14 08:20:36 GMT 51.900330 -0.596542 10,625 13 303 1216
2019-12-14 08:20:33 GMT 51.896072 -0.598221 10,475 13 296 1344
2019-12-14 08:20:30 GMT 51.891312 -0.600091 10,400 13 292 1664
2019-12-14 08:20:27 GMT 51.888008 -0.601349 10,375 13 292 1664
2019-12-14 08:20:24 GMT 51.879593 -0.604693 10,250 13 288 2304
2019-12-14 08:20:21 GMT 51.879593 -0.604693 10,100 13 285 2816
2019-12-14 08:20:18 GMT 51.875717 -0.606155 10,000 13 285 2816
2019-12-14 08:20:15 GMT 51.870926 -0.608063 9,725 13 284 2944
2019-12-14 08:20:12 GMT 51.868927 -0.608850 9,600 12 282 3072
2019-12-14 08:20:08 GMT 51.862919 -0.611115 9,525 13 283 3008
2019-12-14 08:20:05 GMT 51.859379 -0.612488 9,375 12 282 3072
2019-12-14 08:20:02 GMT 51.855652 -0.613824 9,275 12 282 3072
2019-12-14 08:19:58 GMT 51.851185 -0.615463 7,950 11 279 2880
2019-12-14 08:19:55 GMT 51.846039 -0.617313 8,875 12 280 3264
2019-12-14 08:19:52 GMT 51.837936 -0.620059 8,500 11 279 3008
2019-12-14 08:19:48 GMT 51.837936 -0.620059 7,950 11 279 2880
2019-12-14 08:19:45 GMT 51.831711 -0.622212 8,375 11 277 2688
2019-12-14 08:19:42 GMT 51.827026 -0.623779 8,100 11 275 2688
2019-12-14 08:19:36 GMT 51.822601 -0.625305 7,925 12 273 3008
2019-12-14 08:19:33 GMT 51.819389 -0.626373 7,700 12 273 3136
2019-12-14 08:19:30 GMT 51.815479 -0.627747 7,600 12 273 3264
2019-12-14 08:19:27 GMT 51.811058 -0.629272 7,325 12 273 3264
2019-12-14 08:19:24 GMT 51.808548 -0.630155 7,400 12 273 3200
2019-12-14 08:19:21 GMT 51.803879 -0.631788 7,050 12 272 2624
2019-12-14 08:19:18 GMT 51.801003 -0.632782 6,950 12 272 2176
2019-12-14 08:19:15 GMT 51.796463 -0.634386 6,900 12 271 1920
2019-12-14 08:19:12 GMT 51.793259 -0.635500 6,825 12 271 1472
2019-12-14 08:19:09 GMT 51.790054 -0.636613 6,750 12 273 448
2019-12-14 08:19:06 GMT 51.784790 -0.638469 6,700 12 272 512
2019-12-14 08:19:03 GMT 51.780987 -0.639725 6,675 12 273 256
2019-12-14 08:19:00 GMT 51.778381 -0.640622 6,675 12 273 64
2019-12-14 08:18:57 GMT 51.774490 -0.641958 6,675 12 273 0
2019-12-14 08:18:54 GMT 51.771351 -0.643005 6,675 12 273 0
2019-12-14 08:18:50 GMT 51.762596 -0.645981 6,675 12 273 0
2019-12-14 08:18:44 GMT 51.758408 -0.647430 6,675 12 273 0
2019-12-14 08:18:40 GMT 51.753937 -0.648936 6,675 12 273 0
2019-12-14 08:18:37 GMT 51.750229 -0.650198 6,675 12 273 0
2019-12-14 08:18:34 GMT 51.745880 -0.651682 6,675 12 275 0
2019-12-14 08:18:31 GMT 51.741623 -0.653167 6,675 12 275 0
2019-12-14 08:18:28 GMT 51.739086 -0.654068 6,675 12 274 0
2019-12-14 08:18:25 GMT 51.735504 -0.655289 6,675 12 274 0
2019-12-14 08:18:22 GMT 51.731415 -0.656730 6,675 12 274 0
2019-12-14 08:18:19 GMT 51.726837 -0.658363 6,675 12 273 0
2019-12-14 08:18:16 GMT 51.724331 -0.659180 6,675 12 273 0
2019-12-14 08:18:13 GMT 51.719742 -0.660813 6,675 12 273 -64
2019-12-14 08:18:09 GMT 51.715759 -0.662149 6,675 11 271 -64
2019-12-14 08:18:06 GMT 51.711948 -0.663452 6,675 11 272 0
2019-12-14 08:18:03 GMT 51.709015 -0.664444 6,675 11 272 0
2019-12-14 08:18:00 GMT 51.705151 -0.665741 6,675 12 273 0
2019-12-14 08:17:57 GMT 51.699612 -0.667648 6,675 11 274 -64
2019-12-14 08:17:54 GMT 51.696396 -0.668756 6,675 11 274 0
2019-12-14 08:17:51 GMT 51.692211 -0.670166 6,675 11 274 0
2019-12-14 08:17:48 GMT 51.689880 -0.670929 6,675 11 275 -64
2019-12-14 08:17:45 GMT 51.685555 -0.672455 6,675 12 276 0
2019-12-14 08:17:42 GMT 51.682293 -0.673523 6,675 12 276 0
2019-12-14 08:17:39 GMT 51.677265 -0.675278 6,675 12 276 64
2019-12-14 08:17:36 GMT 51.674706 -0.676193 6,675 12 276 0
2019-12-14 08:17:33 GMT 51.669708 -0.677886 6,675 12 276 0
2019-12-14 08:17:30 GMT 51.665813 -0.679245 6,675 12 276 0
2019-12-14 08:17:27 GMT 51.662796 -0.680336 6,675 12 277 -64
2019-12-14 08:17:24 GMT 51.659298 -0.681534 6,675 11 276 -64
2019-12-14 08:17:20 GMT 51.651260 -0.684196 6,675 11 276 0
2019-12-14 08:17:17 GMT 51.651260 -0.684196 6,675 11 276 0
2019-12-14 08:17:14 GMT 51.644588 -0.686264 6,675 10 275 64
2019-12-14 08:17:11 GMT 51.641933 -0.686951 6,675 9 273 64
2019-12-14 08:17:08 GMT 51.638397 -0.687685 6,675 8 272 64
2019-12-14 08:17:05 GMT 51.634953 -0.688171 6,675 1 267 -64
2019-12-14 08:17:02 GMT 51.626339 -0.688095 6,675 359 266 -64
2019-12-14 08:16:58 GMT 51.626339 -0.688095 6,675 357 264 -64
2019-12-14 08:16:55 GMT 51.623314 -0.687790 6,675 356 264 0
2019-12-14 08:16:52 GMT 51.615166 -0.686722 6,675 356 264 0
2019-12-14 08:16:49 GMT 51.615166 -0.686722 6,675 356 264 0
2019-12-14 08:16:46 GMT 51.611301 -0.686264 6,675 356 264 64
2019-12-14 08:16:43 GMT 51.607773 -0.685829 6,675 357 265 64
2019-12-14 08:16:40 GMT 51.604523 -0.685458 6,675 357 265 0
2019-12-14 08:16:37 GMT 51.601665 -0.685196 6,675 357 265 64
2019-12-14 08:16:33 GMT 51.596684 -0.684814 6,675 358 266 64
2019-12-14 08:16:30 GMT 51.593033 -0.684567 6,675 359 266 0
2019-12-14 08:16:27 GMT 51.589237 -0.684433 6,675 359 267 0
2019-12-14 08:16:24 GMT 51.585327 -0.684357 6,650 0 267 64
2019-12-14 08:16:20 GMT 51.579784 -0.684204 6,650 0 268 64
2019-12-14 08:16:17 GMT 51.576992 -0.684204 6,650 0 268 64
2019-12-14 08:16:14 GMT 51.569504 -0.684047 6,650 0 269 128
2019-12-14 08:16:08 GMT 51.566425 -0.683975 6,650 0 269 128
2019-12-14 08:16:05 GMT 51.560375 -0.683823 6,625 359 269 256
2019-12-14 08:16:02 GMT 51.557373 -0.683676 6,600 359 269 384
2019-12-14 08:15:59 GMT 51.554810 -0.683602 6,575 359 268 704
2019-12-14 08:15:56 GMT 51.548691 -0.683136 6,525 357 267 1088
2019-12-14 08:15:53 GMT 51.546688 -0.682983 6,450 354 264 1344
2019-12-14 08:15:49 GMT 51.538681 -0.681305 6,350 347 258 1536
2019-12-14 08:15:46 GMT 51.538681 -0.681305 6,325 347 258 1472
2019-12-14 08:15:43 GMT 51.534584 -0.679474 6,225 341 254 1536
2019-12-14 08:15:40 GMT 51.531876 -0.678035 6,150 339 252 1536
2019-12-14 08:15:37 GMT 51.528069 -0.675430 6,125 336 250 1536
2019-12-14 08:15:33 GMT 51.524529 -0.672455 5,975 323 241 1600
2019-12-14 08:15:30 GMT 51.522171 -0.670092 5,900 324 242 1600
2019-12-14 08:15:27 GMT 51.518524 -0.665817 5,850 323 241 1600
2019-12-14 08:15:24 GMT 51.515762 -0.662075 5,750 317 238 1472
2019-12-14 08:15:21 GMT 51.511917 -0.655320 5,650 309 234 1408
2019-12-14 08:15:18 GMT 51.511917 -0.655320 5,525 301 229 1344
2019-12-14 08:15:11 GMT 51.506287 -0.639286 5,425 297 227 1472
2019-12-14 08:15:08 GMT 51.506287 -0.639286 5,375 297 227 1472
2019-12-14 08:15:05 GMT 51.505302 -0.636215 5,250 297 227 1472
2019-12-14 08:15:02 GMT 51.503357 -0.629932 5,225 297 227 1472
2019-12-14 08:14:59 GMT 51.502510 -0.627289 5,175 297 227 1472
2019-12-14 08:14:56 GMT 51.499298 -0.617065 5,000 297 227 1536
2019-12-14 08:14:50 GMT 51.498135 -0.613327 4,925 297 227 1792
2019-12-14 08:14:47 GMT 51.496902 -0.609370 4,875 297 227 1984
2019-12-14 08:14:44 GMT 51.495117 -0.603803 4,700 297 225 2560
2019-12-14 08:14:41 GMT 51.493515 -0.598755 4,500 298 224 2560
2019-12-14 08:14:38 GMT 51.491959 -0.593856 4,425 298 223 2496
2019-12-14 08:14:35 GMT 51.490631 -0.589773 4,275 298 222 2432
2019-12-14 08:14:32 GMT 51.490032 -0.587845 4,175 298 220 2240
2019-12-14 08:14:29 GMT 51.488388 -0.582647 4,100 298 216 2048
2019-12-14 08:14:26 GMT 51.486542 -0.576935 4,000 298 213 1920
2019-12-14 08:14:19 GMT 51.483749 -0.568314 3,775 298 207 1792
2019-12-14 08:14:16 GMT 51.482166 -0.563431 3,725 298 203 1792
2019-12-14 08:14:13 GMT 51.481110 -0.560303 3,600 299 198 1664
2019-12-14 08:14:09 GMT 51.479279 -0.554884 3,525 299 195 1600
2019-12-14 08:14:06 GMT 51.478397 -0.552139 3,500 299 194 1536
2019-12-14 08:14:03 GMT 51.476807 -0.547461 3,400 298 181 1600
2019-12-14 08:14:00 GMT 51.475342 -0.543155 3,350 299 185 1408
2019-12-14 08:13:57 GMT 51.474518 -0.540706 3,225 298 176 1408
2019-12-14 08:13:54 GMT 51.473415 -0.537415 3,000 298 176 1408
2019-12-14 08:13:50 GMT 51.471863 -0.532540 3,000 297 171 1472
2019-12-14 08:13:47 GMT 51.470760 -0.529022 3,025 297 171 1472
2019-12-14 08:13:44 GMT 51.469666 -0.525562 2,950 297 167 1472
2019-12-14 08:13:39 GMT 51.467781 -0.519562 2,775 296 159 1664
2019-12-14 08:13:36 GMT 51.466991 -0.516968 2,725 292 154 1664
2019-12-14 08:13:33 GMT 51.466015 -0.513229 2,675 292 154 1728
2019-12-14 08:13:30 GMT 51.465408 -0.510345 2,500 284 148 1984
2019-12-14 08:13:27 GMT 51.464989 -0.506973 2,425 280 146 2112
2019-12-14 08:13:23 GMT 51.464802 -0.502396 1,850 270 149 3904
2019-12-14 08:13:19 GMT 51.464767 -0.498913 2,150 270 143 3136
2019-12-14 08:13:16 GMT 51.464802 -0.495758 2,025 270 144 3840
2019-12-14 08:13:13 GMT 51.464767 -0.488743 1,675 270 152 3712
2019-12-14 08:13:10 GMT 51.464767 -0.488743 1,500 270 153 3584
2019-12-14 08:13:07 GMT 51.464767 -0.485180 1,325 270 157 3136
2019-12-14 08:13:03 GMT 51.464813 -0.480652 1,075 270 161 2880
2019-12-14 08:13:00 GMT 51.464848 -0.477676 925 270 164 2368
2019-12-14 08:12:56 GMT 51.464859 -0.473080 925 270 164 2368
2019-12-14 08:12:51 GMT 51.464893 -0.466843 725 270 147 192
2019-12-14 08:12:42 GMT 51.464905 -0.457195 775 270 74
2019-12-14 08:12:33 GMT 51.464916 -0.448435 0 270 86
2019-12-14 08:12:29 GMT 51.464928 -0.446617 0 270 74
2019-12-14 08:12:25 GMT 51.464928 -0.444983 0 270 59
2019-12-14 08:12:15 GMT 51.464939 -0.442144 0 270 14
2019-12-14 08:12:11 GMT 51.464943 -0.441742 0 270 9
2019-12-14 08:12:05 GMT 51.464931 -0.441437 0 264 8
2019-12-14 08:12:00 GMT 51.464916 -0.441198 0 244 7
2019-12-14 08:11:55 GMT 51.464954 -0.440922 0 216 7
2019-12-14 08:11:51 GMT 51.465023 -0.440769 0 194 7
2019-12-14 08:11:45 GMT 51.465214 -0.440697 0 180 8
2019-12-14 08:11:38 GMT 51.465477 -0.440697 0 180 9
2019-12-14 08:11:28 GMT 51.465820 -0.440697 0 180 6
2019-12-14 08:11:25 GMT 51.465912 -0.440697 0 180 5
2019-12-14 08:11:18 GMT 51.466015 -0.440697 0 180 0
2019-12-14 08:11:08 GMT 51.466049 -0.440697 0 180 0
2019-12-14 08:10:48 GMT 51.466049 -0.440693 0 180 0
2019-12-14 08:10:38 GMT 51.466061 -0.440697 0 180 0
2019-12-14 08:10:34 GMT 51.466061 -0.440712 0 180 0
2019-12-14 08:10:28 GMT 51.466061 -0.440697 0 180 0
2019-12-14 08:10:22 GMT 51.466061 -0.440712 0 180 0
2019-12-14 08:10:18 GMT 51.466061 -0.440715 0 180 8
2019-12-14 08:10:05 GMT 51.466385 -0.440674 0 163 8
2019-12-14 08:10:00 GMT 51.466541 -0.440734 0 120 9
2019-12-14 08:09:57 GMT 51.466629 -0.440884 0 104 10
2019-12-14 08:09:52 GMT 51.466675 -0.441303 0 90 14
2019-12-14 08:09:46 GMT 51.466675 -0.441914 0 90 16
2019-12-14 08:09:37 GMT 51.466679 -0.442923 0 90 14
2019-12-14 08:09:31 GMT 51.466667 -0.443499 0 90 13
2019-12-14 08:09:26 GMT 51.466667 -0.443926 0 90 13
2019-12-14 08:09:20 GMT 51.466663 -0.444508 0 90 11
2019-12-14 08:09:16 GMT 51.466667 -0.444779 0 90 11
2019-12-14 08:09:08 GMT 51.466663 -0.445423 0 90 13
2019-12-14 08:09:03 GMT 51.466667 -0.445930 0 90 16
2019-12-14 08:08:53 GMT 51.466656 -0.447285 0 90 24
2019-12-14 08:08:50 GMT 51.466652 -0.447826 0 90 24
2019-12-14 08:08:43 GMT 51.466652 -0.449009 0 90 24
2019-12-14 08:08:33 GMT 51.466644 -0.450662 0 90 21
2019-12-14 08:08:30 GMT 51.466644 -0.451070 0 90 21
2019-12-14 08:08:24 GMT 51.466644 -0.452091 0 90 20
2019-12-14 08:08:18 GMT 51.466644 -0.452815 0 90 19
2019-12-14 08:08:12 GMT 51.466633 -0.453687 0 90 17
2019-12-14 08:08:05 GMT 51.466640 -0.454483 0 90 16
2019-12-14 08:08:00 GMT 51.466633 -0.455042 0 90 18
2019-12-14 08:07:57 GMT 51.466629 -0.455437 0 90 17
2019-12-14 08:07:52 GMT 51.466633 -0.456025 0 90 18
2019-12-14 08:07:47 GMT 51.466629 -0.456734 0 90 19
2019-12-14 08:07:43 GMT 51.466621 -0.457417 0 90 18
2019-12-14 08:07:37 GMT 51.466618 -0.458183 0 90 17
2019-12-14 08:07:31 GMT 51.466621 -0.458828 0 90 16
2019-12-14 08:07:27 GMT 51.466618 -0.459251 0 90 15
2019-12-14 08:07:22 GMT 51.466621 -0.459811 0 90 14
2019-12-14 08:07:16 GMT 51.466618 -0.460415 0 90 13
2019-12-14 08:07:10 GMT 51.466618 -0.460930 0 90 12
2019-12-14 08:07:07 GMT 51.466618 -0.461216 0 90 11
2019-12-14 08:07:02 GMT 51.466606 -0.461597 0 90 12
2019-12-14 08:06:57 GMT 51.466610 -0.462001 0 90 13
2019-12-14 08:06:51 GMT 51.466610 -0.462576 0 90 15
2019-12-14 08:06:47 GMT 51.466606 -0.463123 0 90 16
2019-12-14 08:06:41 GMT 51.466610 -0.463746 0 90 17
2019-12-14 08:06:37 GMT 51.466599 -0.464284 0 90 16
2019-12-14 08:06:27 GMT 51.466595 -0.465393 0 90 13
2019-12-14 08:06:21 GMT 51.466595 -0.465927 0 90 15
2019-12-14 08:06:16 GMT 51.466595 -0.466480 0 90 15
2019-12-14 08:06:09 GMT 51.466595 -0.467186 0 90 14
2019-12-14 08:06:05 GMT 51.466599 -0.467531 0 90 14
2019-12-14 08:05:57 GMT 51.466595 -0.468349 0 90 13
2019-12-14 08:05:48 GMT 51.466587 -0.469146 0 90 13
2019-12-14 08:05:45 GMT 51.466587 -0.469443 0 90 13
2019-12-14 08:05:40 GMT 51.466587 -0.469870 0 90 13
2019-12-14 08:05:36 GMT 51.466587 -0.470296 0 90 13
2019-12-14 08:05:30 GMT 51.466583 -0.470772 0 90 13
2019-12-14 08:05:27 GMT 51.466583 -0.471096 0 90 13
2019-12-14 08:05:20 GMT 51.466576 -0.471707 0 90 13
2019-12-14 08:05:16 GMT 51.466572 -0.472069 0 90 13
2019-12-14 08:05:09 GMT 51.466576 -0.472709 0 90 13
2019-12-14 08:05:02 GMT 51.466572 -0.473309 0 90 12
2019-12-14 08:04:59 GMT 51.466564 -0.473563 0 90 12
2019-12-14 08:04:50 GMT 51.466564 -0.474398 0 90 12
2019-12-14 08:04:46 GMT 51.466564 -0.474788 0 90 12
2019-12-14 08:04:43 GMT 51.466564 -0.475010 0 90 12
2019-12-14 08:04:40 GMT 51.466564 -0.475251 0 90 11
2019-12-14 08:04:34 GMT 51.466564 -0.475715 0 90 10
2019-12-14 08:04:27 GMT 51.466564 -0.476142 0 90 8
2019-12-14 08:04:23 GMT 51.466560 -0.476360 0 90 8
2019-12-14 08:04:18 GMT 51.466560 -0.476627 0 90 7
2019-12-14 08:04:13 GMT 51.466560 -0.476856 0 90 7
2019-12-14 08:04:07 GMT 51.466553 -0.477126 0 90 6
2019-12-14 08:04:01 GMT 51.466560 -0.477371 0 90 5
2019-12-14 08:03:57 GMT 51.466560 -0.477486 0 90 4
2019-12-14 08:03:42 GMT 51.466549 -0.477562 0 90 0
2019-12-14 08:03:37 GMT 51.466553 -0.477571 0 90 0
2019-12-14 08:03:21 GMT 51.466549 -0.477581 0 90 0
2019-12-14 08:03:12 GMT 51.466560 -0.477581 0 90 0
2019-12-14 08:03:05 GMT 51.466553 -0.477571 0 90 0
2019-12-14 08:02:57 GMT 51.466553 -0.477608 0 90 8
2019-12-14 08:02:54 GMT 51.466549 -0.477638 0 90 3
2019-12-14 08:02:46 GMT 51.466553 -0.477868 0 90 6
2019-12-14 08:02:32 GMT 51.466549 -0.478592 0 90 8
2019-12-14 08:02:28 GMT 51.466549 -0.478840 0 90 8
2019-12-14 08:02:24 GMT 51.466541 -0.479019 0 90 7
2019-12-14 08:02:19 GMT 51.466541 -0.479334 0 90 9
2019-12-14 08:02:14 GMT 51.466541 -0.479594 0 90 10
2019-12-14 08:02:07 GMT 51.466541 -0.480169 0 90 12
2019-12-14 08:02:04 GMT 51.466541 -0.480411 0 90 11
2019-12-14 08:01:58 GMT 51.466541 -0.480893 0 90 11
2019-12-14 08:01:53 GMT 51.466541 -0.481283 0 90 11
2019-12-14 08:01:49 GMT 51.466541 -0.481561 0 90 11
2019-12-14 08:01:46 GMT 51.466537 -0.481853 0 90 10
2019-12-14 08:01:41 GMT 51.466537 -0.482159 0 90 10
2019-12-14 08:01:36 GMT 51.466537 -0.482540 0 90 10
2019-12-14 08:01:33 GMT 51.466530 -0.482730 0 90 10
2019-12-14 08:01:26 GMT 51.466526 -0.483208 0 90 9
2019-12-14 08:01:22 GMT 51.466526 -0.483475 0 90 9
2019-12-14 08:01:15 GMT 51.466518 -0.483900 0 90 9
2019-12-14 08:01:07 GMT 51.466507 -0.484401 0 123 9
2019-12-14 08:01:01 GMT 51.466606 -0.484715 0 157 8
2019-12-14 08:00:55 GMT 51.466782 -0.484848 0 180 9
2019-12-14 08:00:48 GMT 51.467140 -0.484848 0 180 12
2019-12-14 08:00:42 GMT 51.467480 -0.484846 0 180 12
2019-12-14 08:00:36 GMT 51.467770 -0.484867 0 180 10
2019-12-14 08:00:21 GMT 51.468433 -0.484867 0 180 10
2019-12-14 08:00:17 GMT 51.468613 -0.484865 0 180 10
2019-12-14 08:00:07 GMT 51.469028 -0.484867 0 180 9
2019-12-14 08:00:00 GMT 51.469341 -0.484867 0 180 9
2019-12-14 07:59:56 GMT 51.469471 -0.484883 0 180 9
2019-12-14 07:59:47 GMT 51.469852 -0.484886 0 180 9
2019-12-14 07:59:39 GMT 51.470142 -0.484886 0 180 8
2019-12-14 07:59:36 GMT 51.470249 -0.484886 0 180 8
2019-12-14 07:59:29 GMT 51.470490 -0.484883 0 180 8
2019-12-14 07:59:24 GMT 51.470673 -0.484883 0 180 8
2019-12-14 07:59:16 GMT 51.470936 -0.484883 0 180 7
2019-12-14 07:59:09 GMT 51.471146 -0.484886 0 180 7
2019-12-14 07:59:03 GMT 51.471321 -0.484886 0 180 7
2019-12-14 07:58:58 GMT 51.471447 -0.484886 0 180 7
2019-12-14 07:58:53 GMT 51.471588 -0.484886 0 180 6
2019-12-14 07:58:47 GMT 51.471760 -0.484883 0 180 6
2019-12-14 07:58:41 GMT 51.471920 -0.484902 0 180 6
2019-12-14 07:58:29 GMT 51.472202 -0.484905 0 180 5
2019-12-14 07:58:24 GMT 51.472286 -0.484886 0 180 5
2019-12-14 07:58:11 GMT 51.472549 -0.484902 0 180 5
2019-12-14 07:58:03 GMT 51.472694 -0.484905 0 180 4
2019-12-14 07:57:53 GMT 51.472858 -0.484902 0 180 4
2019-12-14 07:57:43 GMT 51.473019 -0.484905 0 180 4
2019-12-14 07:57:37 GMT 51.473122 -0.484902 0 180 4
2019-12-14 07:57:32 GMT 51.473190 -0.484902 0 180 4
2019-12-14 07:57:25 GMT 51.473293 -0.484902 0 180 3
2019-12-14 07:57:20 GMT 51.473362 -0.484920 0 180 3
2019-12-14 07:57:16 GMT 51.473415 -0.484924 0 180 3
2019-12-14 07:57:09 GMT 51.473484 -0.484905 0 180 3
2019-12-14 07:57:02 GMT 51.473557 -0.484920 0 180 2
2019-12-14 07:52:22 GMT 51.473705 -0.484924 0 180 0
2019-12-14 07:52:22 GMT 51.473705 -0.484924 0 180 1
2019-12-14 07:52:22 GMT 51.473705 -0.484924 0 180 1
2019-12-14 07:52:15 GMT 51.473660 -0.484943 0 185 2
2019-12-14 07:52:06 GMT 51.473602 -0.485032 0 196 2
2019-12-14 07:51:57 GMT 51.473579 -0.485143 0 216 2
2019-12-14 07:51:54 GMT 51.473579 -0.485199 0 225 2
2019-12-14 07:51:42 GMT 51.473591 -0.485344 0 247 2
2019-12-14 07:51:33 GMT 51.473614 -0.485458 0 261 2
2019-12-14 07:51:23 GMT 51.473625 -0.485611 0 267 2
2019-12-14 07:51:15 GMT 51.473637 -0.485725 0 270 2
2019-12-14 07:51:11 GMT 51.473637 -0.485774 0 270 2
2019-12-14 07:51:02 GMT 51.473637 -0.485904 0 270 2
2019-12-14 07:50:52 GMT 51.473648 -0.486052 0 270 2
2019-12-14 07:50:42 GMT 51.473648 -0.486164 0 270 0
2019-12-14 07:50:32 GMT 51.473648 -0.486219 0 270 0
2019-12-14 07:50:12 GMT 51.473637 -0.486183 0 270 0
2019-12-14 07:50:08 GMT 51.473625 -0.486183 0 270 0
2019-12-14 07:49:58 GMT 51.473614 -0.486183 0 270 0

Making use of Plane Finder data

You are free to use the raw flight data, aircraft information and images provided in this report for your own purposes provided the data is correctly attributed to Plane Finder. We ask that you please credit Plane Finder and link to planefinder.net in close proximity to the content.

Optionally one of the following logos (no smaller then 150x24px) can be used and must link to planefinder.net

Embedding the Plane Finder map

You are welcome to embed the Plane Finder playback map on your website to offer visitors a more interactive experience. We suggest using the following HTML code:

<iframe src="//planefinder.net/data/report/BA1474-G-EUXC-7700-squawk-2019-12-14/map" width="800" height="600" seamless="seamless"></iframe>

Where our data comes from

Plane Finder has a global network of data feeds and antenna radars that receive data broadcast directly from aircraft. The primary technologies used are ADS-B and MLAT. We also show feeds from the FAA and a FLARM glider feed.

Click here to find out more about the Plane Finder network.

How we collect our data